Wetterdaten: Freitag, 13.09.2013
Datum Zeit Temp. Aussen +5cm Feuchte Auss Luftdruck Regen Sonnenschein Regendauer UV Solar Windben
13.09.2013 00:00 13,0 C 12,2 C 97 % 1018,6 hPa 0,0 l/m 0 min 0 min 0,0 UV-I 0 W/m 0,0 km/h (0 Bft)
13.09.2013 00:02 13,1 C 12,2 C 97 % 1018,6 hPa 0,0 l/m 0 min 0 min 0,0 UV-I 0 W/m 0,0 km/h (0 Bft)
13.09.2013 00:06 13,1 C 12,2 C 97 % 1018,6 hPa 0,0 l/m 0 min 0 min 0,0 UV-I 0 W/m 2,6 km/h (1 Bft)
13.09.2013 00:08 13,1 C 12,2 C 97 % 1018,6 hPa 0,0 l/m 0 min 0 min 0,0 UV-I 0 W/m 0,0 km/h (0 Bft)
13.09.2013 00:10 13,1 C 12,2 C 97 % 1018,7 hPa 0,0 l/m 0 min 0 min 0,0 UV-I 0 W/m 0,0 km/h (0 Bft)
13.09.2013 00:12 13,1 C 12,2 C 97 % 1018,7 hPa 0,0 l/m 0 min 0 min 0,0 UV-I 0 W/m 0,0 km/h (0 Bft)
13.09.2013 00:14 13,1 C 12,2 C 97 % 1018,6 hPa 0,0 l/m 0 min 0 min 0,0 UV-I 0 W/m 0,0 km/h (0 Bft)
13.09.2013 00:16 13,1 C 12,2 C 97 % 1018,6 hPa 0,0 l/m 0 min 0 min 0,0 UV-I 0 W/m 2,6 km/h (1 Bft)
13.09.2013 00:18 13,1 C 12,2 C 97 % 1018,6 hPa 0,0 l/m 0 min 0 min 0,0 UV-I 0 W/m 0,0 km/h (0 Bft)
13.09.2013 00:20 13,0 C 12,2 C 97 % 1018,6 hPa 0,0 l/m 0 min 0 min 0,0 UV-I 0 W/m 0,0 km/h (0 Bft)
13.09.2013 00:22 13,1 C 12,2 C 97 % 1018,6 hPa 0,0 l/m 0 min 0 min 0,0 UV-I 0 W/m 2,6 km/h (1 Bft)
13.09.2013 00:24 13,1 C 12,2 C 97 % 1018,7 hPa 0,0 l/m 0 min 0 min 0,0 UV-I 0 W/m 0,0 km/h (0 Bft)
13.09.2013 00:26 13,1 C 12,2 C 97 % 1018,6 hPa 0,0 l/m 0 min 0 min 0,0 UV-I 0 W/m 2,6 km/h (1 Bft)
13.09.2013 00:28 13,0 C 12,2 C 97 % 1018,6 hPa 0,0 l/m 0 min 0 min 0,0 UV-I 0 W/m 5,1 km/h (1 Bft)
13.09.2013 00:30 13,1 C 12,2 C 97 % 1018,6 hPa 0,0 l/m 0 min 0 min 0,0 UV-I 0 W/m 5,1 km/h (1 Bft)
13.09.2013 00:32 13,1 C 12,2 C 97 % 1018,6 hPa 0,0 l/m 0 min 0 min 0,0 UV-I 0 W/m 2,6 km/h (1 Bft)
13.09.2013 00:34 13,1 C 12,2 C 97 % 1018,6 hPa 0,0 l/m 0 min 0 min 0,0 UV-I 0 W/m 7,7 km/h (2 Bft)
13.09.2013 00:36 13,1 C 12,2 C 97 % 1018,6 hPa 0,0 l/m 0 min 0 min 0,0 UV-I 0 W/m 2,6 km/h (1 Bft)
13.09.2013 00:38 13,1 C 12,2 C 97 % 1018,6 hPa 0,0 l/m 0 min 0 min 0,0 UV-I 0 W/m 2,6 km/h (1 Bft)
13.09.2013 00:40 13,1 C 12,2 C 97 % 1018,6 hPa 0,0 l/m 0 min 0 min 0,0 UV-I 0 W/m 2,6 km/h (1 Bft)
13.09.2013 00:42 13,1 C 12,2 C 97 % 1018,7 hPa 0,0 l/m 0 min 0 min 0,0 UV-I 0 W/m 0,0 km/h (0 Bft)
13.09.2013 00:44 13,1 C 12,2 C 97 % 1018,6 hPa 0,0 l/m 0 min 0 min 0,0 UV-I 0 W/m 2,6 km/h (1 Bft)
13.09.2013 00:46 13,1 C 12,2 C 97 % 1018,6 hPa 0,0 l/m 0 min 0 min 0,0 UV-I 0 W/m 0,0 km/h (0 Bft)
13.09.2013 00:48 13,1 C 12,2 C 97 % 1018,6 hPa 0,0 l/m 0 min 0 min 0,0 UV-I 0 W/m 0,0 km/h (0 Bft)
13.09.2013 00:50 13,1 C 12,2 C 97 % 1018,6 hPa 0,0 l/m 0 min 0 min 0,0 UV-I 0 W/m 5,1 km/h (1 Bft)
13.09.2013 00:52 13,1 C 12,2 C 97 % 1018,6 hPa 0,0 l/m 0 min 0 min 0,0 UV-I 0 W/m 0,0 km/h (0 Bft)
13.09.2013 00:54 13,1 C 12,2 C 97 % 1018,6 hPa 0,0 l/m 0 min 0 min 0,0 UV-I 0 W/m 0,0 km/h (0 Bft)
13.09.2013 00:56 13,1 C 12,2 C 97 % 1018,6 hPa 0,0 l/m 0 min 0 min 0,0 UV-I 0 W/m 0,0 km/h (0 Bft)
13.09.2013 00:58 13,2 C 12,2 C 97 % 1018,6 hPa 0,0 l/m 0 min 0 min 0,0 UV-I 0 W/m 7,7 km/h (2 Bft)
13.09.2013 01:00 13,2 C 12,2 C 97 % 1018,7 hPa 0,0 l/m 0 min 0 min 0,0 UV-I 0 W/m 5,1 km/h (1 Bft)
13.09.2013 01:02 13,2 C 12,2 C 97 % 1018,6 hPa 0,0 l/m 0 min 0 min 0,0 UV-I 0 W/m 0,0 km/h (0 Bft)
13.09.2013 01:06 13,2 C 12,2 C 97 % 1018,6 hPa 0,0 l/m 0 min 0 min 0,0 UV-I 0 W/m 2,6 km/h (1 Bft)
13.09.2013 01:08 13,2 C 12,2 C 97 % 1018,7 hPa 0,0 l/m 0 min 0 min 0,0 UV-I 0 W/m 0,0 km/h (0 Bft)
13.09.2013 01:10 13,2 C 12,2 C 97 % 1018,6 hPa 0,0 l/m 0 min 0 min 0,0 UV-I 0 W/m 0,0 km/h (0 Bft)
13.09.2013 01:12 13,2 C 12,2 C 97 % 1018,7 hPa 0,0 l/m 0 min 0 min 0,0 UV-I 0 W/m 0,0 km/h (0 Bft)
13.09.2013 01:14 13,2 C 12,2 C 97 % 1018,6 hPa 0,0 l/m 0 min 0 min 0,0 UV-I 0 W/m 0,0 km/h (0 Bft)
13.09.2013 01:16 13,2 C 12,2 C 97 % 1018,7 hPa 0,0 l/m 0 min 0 min 0,0 UV-I 0 W/m 0,0 km/h (0 Bft)
13.09.2013 01:18 13,2 C 12,2 C 97 % 1018,6 hPa 0,0 l/m 0 min 0 min 0,0 UV-I 0 W/m 2,6 km/h (1 Bft)
13.09.2013 01:20 13,2 C 12,2 C 97 % 1018,6 hPa 0,0 l/m 0 min 0 min 0,0 UV-I 0 W/m 0,0 km/h (0 Bft)
13.09.2013 01:22 13,2 C 12,2 C 97 % 1018,6 hPa 0,0 l/m 0 min 0 min 0,0 UV-I 0 W/m 0,0 km/h (0 Bft)
13.09.2013 01:24 13,2 C 12,2 C 97 % 1018,7 hPa 0,0 l/m 0 min 0 min 0,0 UV-I 0 W/m 2,6 km/h (1 Bft)
13.09.2013 01:26 13,1 C 12,2 C 97 % 1018,7 hPa 0,0 l/m 0 min 0 min 0,0 UV-I 0 W/m 0,0 km/h (0 Bft)
13.09.2013 01:28 13,2 C 12,2 C 97 % 1018,7 hPa 0,0 l/m 0 min 0 min 0,0 UV-I 0 W/m 2,6 km/h (1 Bft)
13.09.2013 01:30 13,1 C 12,2 C 97 % 1018,7 hPa 0,0 l/m 0 min 0 min 0,0 UV-I 0 W/m 0,0 km/h (0 Bft)
13.09.2013 01:32 13,2 C 12,2 C 97 % 1018,7 hPa 0,0 l/m 0 min 0 min 0,0 UV-I 0 W/m 0,0 km/h (0 Bft)
13.09.2013 01:34 13,2 C 12,2 C 97 % 1018,7 hPa 0,0 l/m 0 min 0 min 0,0 UV-I 0 W/m 0,0 km/h (0 Bft)
13.09.2013 01:36 13,2 C 12,2 C 97 % 1018,7 hPa 0,0 l/m 0 min 0 min 0,0 UV-I 0 W/m 5,1 km/h (1 Bft)
13.09.2013 01:38 13,2 C 12,2 C 97 % 1018,7 hPa 0,0 l/m 0 min 0 min 0,0 UV-I 0 W/m 0,0 km/h (0 Bft)
13.09.2013 01:40 13,1 C 12,2 C 97 % 1018,8 hPa 0,0 l/m 0 min 0 min 0,0 UV-I 0 W/m 0,0 km/h (0 Bft)
13.09.2013 01:42 13,1 C 12,2 C 97 % 1018,8 hPa 0,0 l/m 0 min 0 min 0,0 UV-I 0 W/m 0,0 km/h (0 Bft)
13.09.2013 01:44 13,1 C 12,2 C 97 % 1018,8 hPa 0,0 l/m 0 min 0 min 0,0 UV-I 0 W/m 0,0 km/h (0 Bft)
13.09.2013 01:46 13,2 C 12,2 C 97 % 1018,7 hPa 0,0 l/m 0 min 0 min 0,0 UV-I 0 W/m 0,0 km/h (0 Bft)
13.09.2013 01:48 13,2 C 12,2 C 97 % 1018,7 hPa 0,0 l/m 0 min 0 min 0,0 UV-I 0 W/m 0,0 km/h (0 Bft)
13.09.2013 01:50 13,2 C 12,2 C 97 % 1018,7 hPa 0,0 l/m 0 min 0 min 0,0 UV-I 0 W/m 0,0 km/h (0 Bft)
13.09.2013 01:52 13,2 C 12,2 C 97 % 1018,8 hPa 0,0 l/m 0 min 0 min 0,0 UV-I 0 W/m 2,6 km/h (1 Bft)
13.09.2013 01:54 13,2 C 12,2 C 97 % 1018,8 hPa 0,0 l/m 0 min 0 min 0,0 UV-I 0 W/m 2,6 km/h (1 Bft)
13.09.2013 01:56 13,2 C 12,2 C 97 % 1018,7 hPa 0,0 l/m 0 min 0 min 0,0 UV-I 0 W/m 0,0 km/h (0 Bft)
13.09.2013 01:58 13,2 C 12,2 C 97 % 1018,7 hPa 0,0 l/m 0 min 0 min 0,0 UV-I 0 W/m 0,0 km/h (0 Bft)
13.09.2013 02:00 13,2 C 12,2 C 97 % 1018,7 hPa 0,0 l/m 0 min 0 min 0,0 UV-I 0 W/m 0,0 km/h (0 Bft)
13.09.2013 02:02 13,2 C 12,2 C 97 % 1018,7 hPa 0,0 l/m 0 min 0 min 0,0 UV-I 0 W/m 0,0 km/h (0 Bft)
13.09.2013 02:06 13,3 C 12,2 C 97 % 1018,7 hPa 0,0 l/m 0 min 0 min 0,0 UV-I 0 W/m 0,0 km/h (0 Bft)
13.09.2013 02:08 13,3 C 12,2 C 97 % 1018,8 hPa 0,0 l/m 0 min 0 min 0,0 UV-I 0 W/m 0,0 km/h (0 Bft)
13.09.2013 02:10 13,3 C 12,2 C 97 % 1018,8 hPa 0,0 l/m 0 min 0 min 0,0 UV-I 0 W/m 0,0 km/h (0 Bft)
13.09.2013 02:12 13,3 C 12,2 C 97 % 1018,7 hPa 0,0 l/m 0 min 0 min 0,0 UV-I 0 W/m 0,0 km/h (0 Bft)
13.09.2013 02:14 13,3 C 12,2 C 97 % 1018,7 hPa 0,0 l/m 0 min 0 min 0,0 UV-I 0 W/m 0,0 km/h (0 Bft)
13.09.2013 02:16 13,3 C 12,2 C 97 % 1018,7 hPa 0,0 l/m 0 min 0 min 0,0 UV-I 0 W/m 0,0 km/h (0 Bft)
13.09.2013 02:18 13,3 C 12,2 C 97 % 1018,7 hPa 0,0 l/m 0 min 0 min 0,0 UV-I 0 W/m 0,0 km/h (0 Bft)
13.09.2013 02:20 13,3 C 12,2 C 97 % 1018,7 hPa 0,0 l/m 0 min 0 min 0,0 UV-I 0 W/m 0,0 km/h (0 Bft)
13.09.2013 02:22 13,3 C 12,2 C 97 % 1018,7 hPa 0,0 l/m 0 min 0 min 0,0 UV-I 0 W/m 0,0 km/h (0 Bft)
13.09.2013 02:24 13,3 C 12,2 C 97 % 1018,7 hPa 0,0 l/m 0 min 0 min 0,0 UV-I 0 W/m 0,0 km/h (0 Bft)
13.09.2013 02:26 13,3 C 12,2 C 97 % 1018,7 hPa 0,0 l/m 0 min 0 min 0,0 UV-I 0 W/m 0,0 km/h (0 Bft)
13.09.2013 02:28 13,3 C 12,2 C 97 % 1018,7 hPa 0,0 l/m 0 min 0 min 0,0 UV-I 0 W/m 2,6 km/h (1 Bft)
13.09.2013 02:30 13,3 C 12,2 C 97 % 1018,7 hPa 0,0 l/m 0 min 0 min 0,0 UV-I 0 W/m 0,0 km/h (0 Bft)
13.09.2013 02:32 13,3 C 12,2 C 97 % 1018,7 hPa 0,0 l/m 0 min 0 min 0,0 UV-I 0 W/m 0,0 km/h (0 Bft)
13.09.2013 02:34 13,3 C 12,2 C 97 % 1018,7 hPa 0,0 l/m 0 min 0 min 0,0 UV-I 0 W/m 0,0 km/h (0 Bft)
13.09.2013 02:36 13,3 C 12,2 C 97 % 1018,7 hPa 0,0 l/m 0 min 0 min 0,0 UV-I 0 W/m 2,6 km/h (1 Bft)
13.09.2013 02:38 13,4 C 12,2 C 97 % 1018,7 hPa 0,0 l/m 0 min 0 min 0,0 UV-I 0 W/m 0,0 km/h (0 Bft)
13.09.2013 02:40 13,4 C 12,2 C 97 % 1018,7 hPa 0,0 l/m 0 min 0 min 0,0 UV-I 0 W/m 0,0 km/h (0 Bft)
13.09.2013 02:42 13,4 C 12,2 C 97 % 1018,7 hPa 0,0 l/m 0 min 0 min 0,0 UV-I 0 W/m 0,0 km/h (0 Bft)
13.09.2013 02:44 13,4 C 12,2 C 97 % 1018,7 hPa 0,0 l/m 0 min 0 min 0,0 UV-I 0 W/m 0,0 km/h (0 Bft)
13.09.2013 02:46 13,4 C 12,2 C 97 % 1018,7 hPa 0,0 l/m 0 min 0 min 0,0 UV-I 0 W/m 0,0 km/h (0 Bft)
13.09.2013 02:48 13,4 C 12,2 C 97 % 1018,7 hPa 0,0 l/m 0 min 0 min 0,0 UV-I 0 W/m 0,0 km/h (0 Bft)
13.09.2013 02:50 13,4 C 12,2 C 97 % 1018,6 hPa 0,0 l/m 0 min 0 min 0,0 UV-I 0 W/m 0,0 km/h (0 Bft)
13.09.2013 02:52 13,4 C 12,2 C 97 % 1018,7 hPa 0,0 l/m 0 min 0 min 0,0 UV-I 0 W/m 0,0 km/h (0 Bft)
13.09.2013 02:54 13,4 C 12,2 C 97 % 1018,7 hPa 0,0 l/m 0 min 0 min 0,0 UV-I 0 W/m 2,6 km/h (1 Bft)
13.09.2013 02:56 13,4 C 12,2 C 97 % 1018,7 hPa 0,0 l/m 0 min 0 min 0,0 UV-I 0 W/m 2,6 km/h (1 Bft)
13.09.2013 02:58 13,4 C 12,2 C 97 % 1018,7 hPa 0,0 l/m 0 min 0 min 0,0 UV-I 0 W/m 2,6 km/h (1 Bft)
13.09.2013 03:00 13,4 C 12,2 C 97 % 1018,7 hPa 0,0 l/m 0 min 0 min 0,0 UV-I 0 W/m 0,0 km/h (0 Bft)
13.09.2013 03:02 13,4 C 12,2 C 97 % 1018,7 hPa 0,0 l/m 0 min 0 min 0,0 UV-I 0 W/m 0,0 km/h (0 Bft)
13.09.2013 03:05 13,4 C 12,2 C 98 % 1018,7 hPa 0,0 l/m 0 min 0 min 0,0 UV-I 0 W/m 0,0 km/h (0 Bft)
13.09.2013 03:06 13,4 C 12,2 C 98 % 1018,7 hPa 0,0 l/m 0 min 0 min 0,0 UV-I 0 W/m 0,0 km/h (0 Bft)
13.09.2013 03:08 13,4 C 12,2 C 98 % 1018,7 hPa 0,0 l/m 0 min 0 min 0,0 UV-I 0 W/m 0,0 km/h (0 Bft)
13.09.2013 03:10 13,4 C 12,8 C 98 % 1018,7 hPa 0,0 l/m 0 min 0 min 0,0 UV-I 0 W/m 0,0 km/h (0 Bft)
13.09.2013 03:12 13,4 C 12,8 C 98 % 1018,7 hPa 0,0 l/m 0 min 0 min 0,0 UV-I 0 W/m 0,0 km/h (0 Bft)
13.09.2013 03:14 13,4 C 12,8 C 98 % 1018,8 hPa 0,0 l/m 0 min 0 min 0,0 UV-I 0 W/m 5,1 km/h (1 Bft)
13.09.2013 03:16 13,4 C 12,8 C 98 % 1018,7 hPa 0,0 l/m 0 min 0 min 0,0 UV-I 0 W/m 0,0 km/h (0 Bft)
13.09.2013 03:18 13,4 C 12,8 C 98 % 1018,8 hPa 0,0 l/m 0 min 0 min 0,0 UV-I 0 W/m 0,0 km/h (0 Bft)
13.09.2013 03:20 13,4 C 12,8 C 98 % 1018,8 hPa 0,0 l/m 0 min 0 min 0,0 UV-I 0 W/m 0,0 km/h (0 Bft)
13.09.2013 03:22 13,5 C 12,8 C 98 % 1018,8 hPa 0,0 l/m 0 min 0 min 0,0 UV-I 0 W/m 0,0 km/h (0 Bft)
13.09.2013 03:24 13,5 C 12,8 C 98 % 1018,8 hPa 0,0 l/m 0 min 0 min 0,0 UV-I 0 W/m 0,0 km/h (0 Bft)
13.09.2013 03:26 13,5 C 12,8 C 98 % 1018,8 hPa 0,0 l/m 0 min 0 min 0,0 UV-I 0 W/m 0,0 km/h (0 Bft)
13.09.2013 03:28 13,5 C 12,8 C 98 % 1018,8 hPa 0,0 l/m 0 min 0 min 0,0 UV-I 0 W/m 0,0 km/h (0 Bft)
13.09.2013 03:30 13,5 C 12,8 C 98 % 1018,8 hPa 0,0 l/m 0 min 0 min 0,0 UV-I 0 W/m 12,9 km/h (3 Bft)
13.09.2013 03:32 13,5 C 12,8 C 98 % 1018,8 hPa 0,0 l/m 0 min 0 min 0,0 UV-I 0 W/m 0,0 km/h (0 Bft)
13.09.2013 03:34 13,5 C 12,8 C 98 % 1018,8 hPa 0,0 l/m 0 min 0 min 0,0 UV-I 0 W/m 0,0 km/h (0 Bft)
13.09.2013 03:36 13,5 C 12,8 C 98 % 1018,8 hPa 0,0 l/m 0 min 0 min 0,0 UV-I 0 W/m 0,0 km/h (0 Bft)
13.09.2013 03:38 13,5 C 12,8 C 98 % 1018,7 hPa 0,0 l/m 0 min 0 min 0,0 UV-I 0 W/m 0,0 km/h (0 Bft)
13.09.2013 03:40 13,5 C 12,8 C 98 % 1018,7 hPa 0,0 l/m 0 min 0 min 0,0 UV-I 0 W/m 0,0 km/h (0 Bft)
13.09.2013 03:42 13,5 C 12,8 C 98 % 1018,7 hPa 0,0 l/m 0 min 0 min 0,0 UV-I 0 W/m 0,0 km/h (0 Bft)
13.09.2013 03:44 13,5 C 12,8 C 98 % 1018,7 hPa 0,0 l/m 0 min 0 min 0,0 UV-I 0 W/m 0,0 km/h (0 Bft)
13.09.2013 03:46 13,5 C 12,8 C 98 % 1018,6 hPa 0,0 l/m 0 min 0 min 0,0 UV-I 0 W/m 0,0 km/h (0 Bft)
13.09.2013 03:48 13,5 C 12,8 C 98 % 1018,6 hPa 0,0 l/m 0 min 0 min 0,0 UV-I 0 W/m 0,0 km/h (0 Bft)
13.09.2013 03:50 13,5 C 12,8 C 98 % 1018,7 hPa 0,0 l/m 0 min 0 min 0,0 UV-I 0 W/m 0,0 km/h (0 Bft)
13.09.2013 03:52 13,5 C 12,8 C 98 % 1018,7 hPa 0,0 l/m 0 min 0 min 0,0 UV-I 0 W/m 0,0 km/h (0 Bft)
13.09.2013 03:54 13,5 C 12,8 C 98 % 1018,6 hPa 0,0 l/m 0 min 0 min 0,0 UV-I 0 W/m 0,0 km/h (0 Bft)
13.09.2013 03:56 13,4 C 12,8 C 98 % 1018,6 hPa 0,0 l/m 0 min 0 min 0,0 UV-I 0 W/m 0,0 km/h (0 Bft)
13.09.2013 03:58 13,4 C 12,8 C 98 % 1018,6 hPa 0,0 l/m 0 min 0 min 0,0 UV-I 0 W/m 0,0 km/h (0 Bft)
13.09.2013 04:00 13,5 C 12,8 C 98 % 1018,6 hPa 0,0 l/m 0 min 0 min 0,0 UV-I 0 W/m 0,0 km/h (0 Bft)
13.09.2013 04:02 13,5 C 12,8 C 98 % 1018,6 hPa 0,0 l/m 0 min 0 min 0,0 UV-I 0 W/m 0,0 km/h (0 Bft)
13.09.2013 04:06 13,5 C 12,2 C 98 % 1018,7 hPa 0,0 l/m 0 min 0 min 0,0 UV-I 0 W/m 0,0 km/h (0 Bft)
13.09.2013 04:08 13,5 C 12,8 C 98 % 1018,7 hPa 0,0 l/m 0 min 0 min 0,0 UV-I 0 W/m 0,0 km/h (0 Bft)
13.09.2013 04:10 13,5 C 12,8 C 98 % 1018,7 hPa 0,0 l/m 0 min 0 min 0,0 UV-I 0 W/m 0,0 km/h (0 Bft)
13.09.2013 04:12 13,5 C 12,8 C 98 % 1018,8 hPa 0,0 l/m 0 min 0 min 0,0 UV-I 0 W/m 0,0 km/h (0 Bft)
13.09.2013 04:14 13,5 C 12,8 C 98 % 1018,8 hPa 0,0 l/m 0 min 0 min 0,0 UV-I 0 W/m 0,0 km/h (0 Bft)
13.09.2013 04:16 13,5 C 12,8 C 98 % 1018,8 hPa 0,0 l/m 0 min 0 min 0,0 UV-I 0 W/m 0,0 km/h (0 Bft)
13.09.2013 04:18 13,5 C 12,8 C 98 % 1018,8 hPa 0,0 l/m 0 min 0 min 0,0 UV-I 0 W/m 0,0 km/h (0 Bft)
13.09.2013 04:20 13,5 C 12,8 C 98 % 1018,8 hPa 0,0 l/m 0 min 0 min 0,0 UV-I 0 W/m 0,0 km/h (0 Bft)
13.09.2013 04:22 13,5 C 12,8 C 98 % 1018,9 hPa 0,0 l/m 0 min 0 min 0,0 UV-I 0 W/m 0,0 km/h (0 Bft)
13.09.2013 04:24 13,4 C 12,8 C 98 % 1018,9 hPa 0,0 l/m 0 min 0 min 0,0 UV-I 0 W/m 0,0 km/h (0 Bft)
13.09.2013 04:26 13,5 C 12,8 C 98 % 1018,8 hPa 0,0 l/m 0 min 0 min 0,0 UV-I 0 W/m 0,0 km/h (0 Bft)
13.09.2013 04:28 13,4 C 12,8 C 98 % 1018,8 hPa 0,0 l/m 0 min 0 min 0,0 UV-I 0 W/m 5,1 km/h (1 Bft)
13.09.2013 04:30 13,4 C 12,8 C 98 % 1018,8 hPa 0,0 l/m 0 min 0 min 0,0 UV-I 0 W/m 0,0 km/h (0 Bft)
13.09.2013 04:32 13,4 C 12,2 C 98 % 1018,9 hPa 0,0 l/m 0 min 0 min 0,0 UV-I 0 W/m 0,0 km/h (0 Bft)
13.09.2013 04:34 13,4 C 12,2 C 98 % 1018,8 hPa 0,0 l/m 0 min 0 min 0,0 UV-I 0 W/m 0,0 km/h (0 Bft)
13.09.2013 04:36 13,4 C 12,2 C 98 % 1018,8 hPa 0,0 l/m 0 min 0 min 0,0 UV-I 0 W/m 0,0 km/h (0 Bft)
13.09.2013 04:38 13,4 C 12,2 C 98 % 1018,8 hPa 0,0 l/m 0 min 0 min 0,0 UV-I 0 W/m 0,0 km/h (0 Bft)
13.09.2013 04:40 13,4 C 12,2 C 98 % 1018,8 hPa 0,0 l/m 0 min 0 min 0,0 UV-I 0 W/m 2,6 km/h (1 Bft)
13.09.2013 04:42 13,4 C 12,2 C 98 % 1018,8 hPa 0,0 l/m 0 min 0 min 0,0 UV-I 0 W/m 0,0 km/h (0 Bft)
13.09.2013 04:44 13,4 C 12,2 C 98 % 1018,8 hPa 0,0 l/m 0 min 0 min 0,0 UV-I 0 W/m 0,0 km/h (0 Bft)
13.09.2013 04:46 13,4 C 12,2 C 98 % 1018,8 hPa 0,0 l/m 0 min 0 min 0,0 UV-I 0 W/m 0,0 km/h (0 Bft)
13.09.2013 04:48 13,4 C 12,2 C 98 % 1018,8 hPa 0,0 l/m 0 min 0 min 0,0 UV-I 0 W/m 0,0 km/h (0 Bft)
13.09.2013 04:50 13,4 C 12,2 C 98 % 1018,8 hPa 0,0 l/m 0 min 0 min 0,0 UV-I 0 W/m 0,0 km/h (0 Bft)
13.09.2013 04:52 13,4 C 12,2 C 98 % 1018,8 hPa 0,0 l/m 0 min 0 min 0,0 UV-I 0 W/m 0,0 km/h (0 Bft)
13.09.2013 04:54 13,3 C 12,2 C 98 % 1018,8 hPa 0,0 l/m 0 min 0 min 0,0 UV-I 0 W/m 0,0 km/h (0 Bft)
13.09.2013 04:56 13,3 C 12,2 C 98 % 1018,8 hPa 0,0 l/m 0 min 0 min 0,0 UV-I 0 W/m 0,0 km/h (0 Bft)
13.09.2013 04:58 13,3 C 12,2 C 98 % 1018,8 hPa 0,0 l/m 0 min 0 min 0,0 UV-I 0 W/m 0,0 km/h (0 Bft)
13.09.2013 05:00 13,3 C 12,2 C 98 % 1018,7 hPa 0,0 l/m 0 min 0 min 0,0 UV-I 0 W/m 0,0 km/h (0 Bft)
13.09.2013 05:02 13,3 C 12,2 C 98 % 1018,8 hPa 0,0 l/m 0 min 0 min 0,0 UV-I 0 W/m 0,0 km/h (0 Bft)
13.09.2013 05:06 13,3 C 12,2 C 98 % 1018,7 hPa 0,0 l/m 0 min 0 min 0,0 UV-I 0 W/m 0,0 km/h (0 Bft)
13.09.2013 05:08 13,2 C 12,2 C 98 % 1018,8 hPa 0,0 l/m 0 min 0 min 0,0 UV-I 0 W/m 0,0 km/h (0 Bft)
13.09.2013 05:10 13,2 C 12,2 C 98 % 1018,7 hPa 0,0 l/m 0 min 0 min 0,0 UV-I 0 W/m 0,0 km/h (0 Bft)
13.09.2013 05:12 13,2 C 12,2 C 98 % 1018,8 hPa 0,0 l/m 0 min 0 min 0,0 UV-I 0 W/m 0,0 km/h (0 Bft)
13.09.2013 05:14 13,2 C 12,2 C 98 % 1018,8 hPa 0,0 l/m 0 min 0 min 0,0 UV-I 0 W/m 0,0 km/h (0 Bft)
13.09.2013 05:16 13,1 C 12,2 C 98 % 1018,8 hPa 0,0 l/m 0 min 0 min 0,0 UV-I 0 W/m 0,0 km/h (0 Bft)
13.09.2013 05:18 13,1 C 12,2 C 98 % 1018,9 hPa 0,0 l/m 0 min 0 min 0,0 UV-I 0 W/m 0,0 km/h (0 Bft)
13.09.2013 05:20 13,1 C 12,2 C 98 % 1018,8 hPa 0,0 l/m 0 min 0 min 0,0 UV-I 0 W/m 0,0 km/h (0 Bft)
13.09.2013 05:22 13,1 C 12,2 C 98 % 1018,8 hPa 0,0 l/m 0 min 0 min 0,0 UV-I 0 W/m 0,0 km/h (0 Bft)
13.09.2013 05:24 13,1 C 12,2 C 98 % 1018,8 hPa 0,0 l/m 0 min 0 min 0,0 UV-I 0 W/m 0,0 km/h (0 Bft)
13.09.2013 05:26 13,1 C 12,2 C 98 % 1018,8 hPa 0,0 l/m 0 min 0 min 0,0 UV-I 0 W/m 0,0 km/h (0 Bft)
13.09.2013 05:28 13,1 C 12,2 C 98 % 1018,8 hPa 0,0 l/m 0 min 0 min 0,0 UV-I 0 W/m 0,0 km/h (0 Bft)
13.09.2013 05:30 13,0 C 11,7 C 98 % 1018,8 hPa 0,0 l/m 0 min 0 min 0,0 UV-I 0 W/m 0,0 km/h (0 Bft)
13.09.2013 05:32 13,0 C 11,7 C 98 % 1018,8 hPa 0,0 l/m 0 min 0 min 0,0 UV-I 0 W/m 0,0 km/h (0 Bft)
13.09.2013 05:34 13,0 C 11,7 C 98 % 1018,9 hPa 0,0 l/m 0 min 0 min 0,0 UV-I 0 W/m 0,0 km/h (0 Bft)
13.09.2013 05:36 13,0 C 11,7 C 98 % 1018,9 hPa 0,0 l/m 0 min 0 min 0,0 UV-I 0 W/m 0,0 km/h (0 Bft)
13.09.2013 05:38 12,9 C 11,7 C 98 % 1018,9 hPa 0,0 l/m 0 min 0 min 0,0 UV-I 0 W/m 0,0 km/h (0 Bft)
13.09.2013 05:40 13,0 C 11,7 C 98 % 1018,9 hPa 0,0 l/m 0 min 0 min 0,0 UV-I 0 W/m 0,0 km/h (0 Bft)
13.09.2013 05:42 13,0 C 11,7 C 98 % 1018,9 hPa 0,0 l/m 0 min 0 min 0,0 UV-I 0 W/m 0,0 km/h (0 Bft)
13.09.2013 05:44 13,0 C 12,2 C 98 % 1018,9 hPa 0,0 l/m 0 min 0 min 0,0 UV-I 0 W/m 0,0 km/h (0 Bft)
13.09.2013 05:46 13,0 C 12,2 C 98 % 1018,9 hPa 0,0 l/m 0 min 0 min 0,0 UV-I 0 W/m 0,0 km/h (0 Bft)
13.09.2013 05:48 13,0 C 12,2 C 98 % 1018,9 hPa 0,0 l/m 0 min 0 min 0,0 UV-I 0 W/m 0,0 km/h (0 Bft)
13.09.2013 05:50 13,1 C 12,2 C 98 % 1018,9 hPa 0,0 l/m 0 min 0 min 0,0 UV-I 0 W/m 0,0 km/h (0 Bft)
13.09.2013 05:52 13,1 C 12,2 C 98 % 1018,9 hPa 0,0 l/m 0 min 0 min 0,0 UV-I 0 W/m 0,0 km/h (0 Bft)
13.09.2013 05:54 13,1 C 12,2 C 98 % 1018,9 hPa 0,0 l/m 0 min 0 min 0,0 UV-I 0 W/m 0,0 km/h (0 Bft)
13.09.2013 05:56 13,1 C 12,2 C 98 % 1018,9 hPa 0,0 l/m 0 min 0 min 0,0 UV-I 0 W/m 0,0 km/h (0 Bft)
13.09.2013 05:58 13,1 C 12,2 C 98 % 1018,8 hPa 0,0 l/m 0 min 0 min 0,0 UV-I 0 W/m 0,0 km/h (0 Bft)
13.09.2013 06:00 13,1 C 12,2 C 98 % 1018,9 hPa 0,0 l/m 0 min 0 min 0,0 UV-I 0 W/m 0,0 km/h (0 Bft)
13.09.2013 06:02 13,1 C 12,2 C 98 % 1018,9 hPa 0,0 l/m 0 min 0 min 0,0 UV-I 0 W/m 0,0 km/h (0 Bft)
13.09.2013 06:06 13,1 C 12,2 C 98 % 1019,0 hPa 0,0 l/m 0 min 0 min 0,0 UV-I 0 W/m 0,0 km/h (0 Bft)
13.09.2013 06:08 13,1 C 12,2 C 98 % 1019,0 hPa 0,0 l/m 0 min 0 min 0,0 UV-I 0 W/m 0,0 km/h (0 Bft)
13.09.2013 06:10 13,1 C 12,2 C 98 % 1019,0 hPa 0,0 l/m 0 min 0 min 0,0 UV-I 0 W/m 0,0 km/h (0 Bft)
13.09.2013 06:12 13,2 C 12,2 C 98 % 1019,0 hPa 0,0 l/m 0 min 0 min 0,0 UV-I 0 W/m 0,0 km/h (0 Bft)
13.09.2013 06:14 13,2 C 12,2 C 98 % 1019,0 hPa 0,0 l/m 0 min 0 min 0,0 UV-I 0 W/m 0,0 km/h (0 Bft)
13.09.2013 06:16 13,2 C 12,2 C 98 % 1019,0 hPa 0,0 l/m 0 min 0 min 0,0 UV-I 0 W/m 0,0 km/h (0 Bft)
13.09.2013 06:18 13,2 C 12,2 C 98 % 1019,0 hPa 0,0 l/m 0 min 0 min 0,0 UV-I 0 W/m 0,0 km/h (0 Bft)
13.09.2013 06:20 13,2 C 12,2 C 98 % 1019,0 hPa 0,0 l/m 0 min 0 min 0,0 UV-I 0 W/m 0,0 km/h (0 Bft)
13.09.2013 06:22 13,2 C 12,2 C 98 % 1019,1 hPa 0,0 l/m 0 min 0 min 0,0 UV-I 0 W/m 0,0 km/h (0 Bft)
13.09.2013 06:24 13,2 C 12,2 C 98 % 1019,0 hPa 0,0 l/m 0 min 0 min 0,0 UV-I 0 W/m 0,0 km/h (0 Bft)
13.09.2013 06:26 13,2 C 12,2 C 98 % 1019,0 hPa 0,0 l/m 0 min 0 min 0,0 UV-I 0 W/m 0,0 km/h (0 Bft)
13.09.2013 06:28 13,2 C 12,2 C 98 % 1019,1 hPa 0,0 l/m 0 min 0 min 0,0 UV-I 0 W/m 0,0 km/h (0 Bft)
13.09.2013 06:30 13,2 C 12,2 C 98 % 1019,0 hPa 0,0 l/m 0 min 0 min 0,0 UV-I 0 W/m 0,0 km/h (0 Bft)
13.09.2013 06:32 13,2 C 12,2 C 98 % 1019,0 hPa 0,0 l/m 0 min 0 min 0,0 UV-I 0 W/m 0,0 km/h (0 Bft)
13.09.2013 06:34 13,2 C 12,2 C 98 % 1019,1 hPa 0,0 l/m 0 min 0 min 0,0 UV-I 0 W/m 0,0 km/h (0 Bft)
13.09.2013 06:36 13,2 C 12,2 C 98 % 1019,1 hPa 0,0 l/m 0 min 0 min 0,0 UV-I 0 W/m 0,0 km/h (0 Bft)
13.09.2013 06:38 13,2 C 12,2 C 98 % 1019,1 hPa 0,0 l/m 0 min 0 min 0,0 UV-I 0 W/m 0,0 km/h (0 Bft)
13.09.2013 06:40 13,2 C 12,2 C 98 % 1019,1 hPa 0,0 l/m 0 min 0 min 0,0 UV-I 0 W/m 0,0 km/h (0 Bft)
13.09.2013 06:42 13,2 C 12,2 C 98 % 1019,1 hPa 0,0 l/m 0 min 0 min 0,0 UV-I 0 W/m 0,0 km/h (0 Bft)
13.09.2013 06:44 13,2 C 12,2 C 98 % 1019,1 hPa 0,0 l/m 0 min 0 min 0,0 UV-I 0 W/m 0,0 km/h (0 Bft)
13.09.2013 06:46 13,2 C 12,2 C 98 % 1019,2 hPa 0,0 l/m 0 min 0 min 0,0 UV-I 0 W/m 0,0 km/h (0 Bft)
13.09.2013 06:48 13,2 C 12,2 C 98 % 1019,2 hPa 0,0 l/m 0 min 0 min 0,0 UV-I 0 W/m 0,0 km/h (0 Bft)
13.09.2013 06:50 13,3 C 12,2 C 98 % 1019,2 hPa 0,0 l/m 0 min 0 min 0,0 UV-I 0 W/m 0,0 km/h (0 Bft)
13.09.2013 06:52 13,3 C 12,2 C 98 % 1019,1 hPa 0,0 l/m 0 min 0 min 0,0 UV-I 0 W/m 0,0 km/h (0 Bft)
13.09.2013 06:54 13,2 C 12,2 C 98 % 1019,1 hPa 0,0 l/m 0 min 0 min 0,0 UV-I 0 W/m 0,0 km/h (0 Bft)
13.09.2013 06:56 13,2 C 12,2 C 98 % 1019,1 hPa 0,0 l/m 0 min 0 min 0,0 UV-I 0 W/m 0,0 km/h (0 Bft)
13.09.2013 06:58 13,3 C 12,2 C 98 % 1019,2 hPa 0,0 l/m 0 min 0 min 0,0 UV-I 0 W/m 0,0 km/h (0 Bft)
13.09.2013 07:00 13,2 C 12,2 C 98 % 1019,2 hPa 0,0 l/m 0 min 0 min 0,0 UV-I 0 W/m 0,0 km/h (0 Bft)
13.09.2013 07:02 13,3 C 12,2 C 98 % 1019,2 hPa 0,0 l/m 0 min 0 min 0,0 UV-I 0 W/m 0,0 km/h (0 Bft)
13.09.2013 07:06 13,2 C 12,2 C 98 % 1019,2 hPa 0,0 l/m 0 min 0 min 0,0 UV-I 0 W/m 0,0 km/h (0 Bft)
13.09.2013 07:08 13,2 C 12,2 C 98 % 1019,2 hPa 0,0 l/m 0 min 0 min 0,0 UV-I 0 W/m 0,0 km/h (0 Bft)
13.09.2013 07:10 13,2 C 12,2 C 98 % 1019,2 hPa 0,0 l/m 0 min 0 min 0,0 UV-I 5 W/m 0,0 km/h (0 Bft)
13.09.2013 07:12 13,2 C 12,2 C 98 % 1019,2 hPa 0,0 l/m 0 min 0 min 0,0 UV-I 5 W/m 0,0 km/h (0 Bft)
13.09.2013 07:14 13,2 C 12,2 C 98 % 1019,2 hPa 0,0 l/m 0 min 0 min 0,0 UV-I 7 W/m 0,0 km/h (0 Bft)
13.09.2013 07:16 13,2 C 12,2 C 98 % 1019,2 hPa 0,0 l/m 0 min 0 min 0,0 UV-I 9 W/m 0,0 km/h (0 Bft)
13.09.2013 07:18 13,2 C 12,2 C 98 % 1019,2 hPa 0,0 l/m 0 min 0 min 0,0 UV-I 11 W/m 0,0 km/h (0 Bft)
13.09.2013 07:20 13,2 C 12,2 C 98 % 1019,2 hPa 0,0 l/m 0 min 0 min 0,0 UV-I 11 W/m 0,0 km/h (0 Bft)
13.09.2013 07:22 13,2 C 12,2 C 98 % 1019,2 hPa 0,0 l/m 0 min 0 min 0,0 UV-I 12 W/m 0,0 km/h (0 Bft)
13.09.2013 07:24 13,1 C 12,2 C 98 % 1019,2 hPa 0,0 l/m 0 min 0 min 0,0 UV-I 18 W/m 0,0 km/h (0 Bft)
13.09.2013 07:26 13,1 C 12,2 C 98 % 1019,2 hPa 0,0 l/m 0 min 0 min 0,0 UV-I 19 W/m 0,0 km/h (0 Bft)
13.09.2013 07:28 13,1 C 12,2 C 98 % 1019,2 hPa 0,0 l/m 0 min 0 min 0,0 UV-I 23 W/m 0,0 km/h (0 Bft)
13.09.2013 07:30 13,1 C 12,2 C 98 % 1019,2 hPa 0,0 l/m 0 min 0 min 0,0 UV-I 26 W/m 0,0 km/h (0 Bft)
13.09.2013 07:32 13,1 C 12,2 C 98 % 1019,2 hPa 0,0 l/m 0 min 0 min 0,0 UV-I 28 W/m 0,0 km/h (0 Bft)
13.09.2013 07:34 13,1 C 12,2 C 98 % 1019,2 hPa 0,0 l/m 0 min 0 min 0,0 UV-I 30 W/m 0,0 km/h (0 Bft)
13.09.2013 07:36 13,1 C 12,2 C 98 % 1019,3 hPa 0,0 l/m 0 min 0 min 0,0 UV-I 32 W/m 0,0 km/h (0 Bft)
13.09.2013 07:38 13,1 C 12,2 C 98 % 1019,3 hPa 0,0 l/m 0 min 0 min 0,0 UV-I 35 W/m 0,0 km/h (0 Bft)
13.09.2013 07:40 13,2 C 12,2 C 98 % 1019,3 hPa 0,0 l/m 2 min 0 min 0,0 UV-I 46 W/m 0,0 km/h (0 Bft)
13.09.2013 07:42 13,2 C 12,2 C 98 % 1019,3 hPa 0,0 l/m 2 min 0 min 0,0 UV-I 54 W/m 0,0 km/h (0 Bft)
13.09.2013 07:44 13,2 C 12,2 C 98 % 1019,3 hPa 0,0 l/m 2 min 0 min 0,0 UV-I 62 W/m 0,0 km/h (0 Bft)
13.09.2013 07:46 13,2 C 12,2 C 98 % 1019,4 hPa 0,0 l/m 2 min 0 min 0,0 UV-I 63 W/m 0,0 km/h (0 Bft)
13.09.2013 07:48 13,2 C 12,8 C 98 % 1019,4 hPa 0,0 l/m 2 min 0 min 0,0 UV-I 62 W/m 0,0 km/h (0 Bft)
13.09.2013 07:50 13,3 C 12,8 C 98 % 1019,4 hPa 0,0 l/m 2 min 0 min 0,0 UV-I 62 W/m 0,0 km/h (0 Bft)
13.09.2013 07:52 13,3 C 12,8 C 98 % 1019,5 hPa 0,0 l/m 2 min 0 min 0,0 UV-I 67 W/m 0,0 km/h (0 Bft)
13.09.2013 07:54 13,4 C 12,8 C 98 % 1019,4 hPa 0,0 l/m 2 min 0 min 0,0 UV-I 65 W/m 0,0 km/h (0 Bft)
13.09.2013 07:56 13,4 C 12,8 C 98 % 1019,5 hPa 0,0 l/m 0 min 0 min 0,0 UV-I 60 W/m 2,6 km/h (1 Bft)
13.09.2013 07:58 13,4 C 12,8 C 98 % 1019,4 hPa 0,0 l/m 0 min 0 min 0,0 UV-I 65 W/m 0,0 km/h (0 Bft)
13.09.2013 08:00 13,4 C 12,8 C 98 % 1019,5 hPa 0,0 l/m 2 min 0 min 0,0 UV-I 74 W/m 0,0 km/h (0 Bft)
13.09.2013 08:02 13,4 C 12,8 C 98 % 1019,5 hPa 0,0 l/m 2 min 0 min 0,0 UV-I 79 W/m 0,0 km/h (0 Bft)
13.09.2013 08:06 13,5 C 12,8 C 99 % 1019,5 hPa 0,0 l/m 0 min 0 min 0,0 UV-I 79 W/m 0,0 km/h (0 Bft)
13.09.2013 08:08 13,6 C 12,8 C 99 % 1019,5 hPa 0,0 l/m 2 min 0 min 0,0 UV-I 88 W/m 0,0 km/h (0 Bft)
13.09.2013 08:10 13,6 C 12,8 C 99 % 1019,5 hPa 0,0 l/m 0 min 0 min 0,0 UV-I 84 W/m 0,0 km/h (0 Bft)
13.09.2013 08:12 13,6 C 12,8 C 99 % 1019,5 hPa 0,0 l/m 0 min 0 min 0,0 UV-I 76 W/m 0,0 km/h (0 Bft)
13.09.2013 08:14 13,6 C 12,8 C 98 % 1019,5 hPa 0,0 l/m 0 min 0 min 0,0 UV-I 76 W/m 0,0 km/h (0 Bft)
13.09.2013 08:16 13,7 C 12,8 C 98 % 1019,5 hPa 0,0 l/m 0 min 0 min 0,0 UV-I 83 W/m 0,0 km/h (0 Bft)
13.09.2013 08:18 13,7 C 12,8 C 98 % 1019,5 hPa 0,0 l/m 0 min 0 min 0,0 UV-I 93 W/m 5,1 km/h (1 Bft)
13.09.2013 08:20 13,7 C 12,8 C 98 % 1019,5 hPa 0,0 l/m 0 min 0 min 0,0 UV-I 93 W/m 0,0 km/h (0 Bft)
13.09.2013 08:22 13,7 C 13,3 C 98 % 1019,6 hPa 0,0 l/m 0 min 0 min 0,0 UV-I 86 W/m 0,0 km/h (0 Bft)
13.09.2013 08:24 13,7 C 13,3 C 98 % 1019,5 hPa 0,0 l/m 0 min 0 min 0,0 UV-I 84 W/m 0,0 km/h (0 Bft)
13.09.2013 08:26 13,8 C 13,3 C 98 % 1019,5 hPa 0,0 l/m 0 min 0 min 0,0 UV-I 90 W/m 0,0 km/h (0 Bft)
13.09.2013 08:28 13,8 C 13,3 C 98 % 1019,5 hPa 0,0 l/m 0 min 0 min 0,0 UV-I 107 W/m 0,0 km/h (0 Bft)
13.09.2013 08:30 13,8 C 13,3 C 98 % 1019,5 hPa 0,0 l/m 0 min 0 min 0,0 UV-I 116 W/m 0,0 km/h (0 Bft)
13.09.2013 08:32 13,9 C 13,3 C 98 % 1019,6 hPa 0,0 l/m 2 min 0 min 0,0 UV-I 148 W/m 0,0 km/h (0 Bft)
13.09.2013 08:34 14,0 C 13,3 C 98 % 1019,6 hPa 0,0 l/m 2 min 0 min 0,0 UV-I 123 W/m 0,0 km/h (0 Bft)
13.09.2013 08:36 14,1 C 13,9 C 98 % 1019,6 hPa 0,0 l/m 0 min 0 min 0,0 UV-I 111 W/m 0,0 km/h (0 Bft)
13.09.2013 08:38 14,2 C 13,9 C 98 % 1019,7 hPa 0,0 l/m 0 min 0 min 0,0 UV-I 97 W/m 0,0 km/h (0 Bft)
13.09.2013 08:40 14,1 C 13,9 C 98 % 1019,7 hPa 0,0 l/m 0 min 0 min 0,0 UV-I 98 W/m 2,6 km/h (1 Bft)
13.09.2013 08:42 14,2 C 13,9 C 98 % 1019,6 hPa 0,0 l/m 0 min 0 min 0,0 UV-I 91 W/m 0,0 km/h (0 Bft)
13.09.2013 08:44 14,1 C 13,3 C 98 % 1019,7 hPa 0,0 l/m 0 min 0 min 0,0 UV-I 63 W/m 7,7 km/h (2 Bft)
13.09.2013 08:46 14,1 C 13,3 C 98 % 1019,7 hPa 0,0 l/m 0 min 0 min 0,0 UV-I 70 W/m 0,0 km/h (0 Bft)
13.09.2013 08:48 14,1 C 13,3 C 97 % 1019,7 hPa 0,0 l/m 0 min 0 min 0,0 UV-I 69 W/m 2,6 km/h (1 Bft)
13.09.2013 08:50 14,1 C 13,3 C 97 % 1019,6 hPa 0,0 l/m 0 min 0 min 0,0 UV-I 81 W/m 0,0 km/h (0 Bft)
13.09.2013 08:52 14,2 C 13,3 C 97 % 1019,7 hPa 0,0 l/m 0 min 0 min 0,0 UV-I 83 W/m 0,0 km/h (0 Bft)
13.09.2013 08:54 14,2 C 13,3 C 97 % 1019,7 hPa 0,0 l/m 0 min 0 min 0,0 UV-I 69 W/m 0,0 km/h (0 Bft)
13.09.2013 08:56 14,2 C 13,3 C 97 % 1019,7 hPa 0,0 l/m 0 min 0 min 0,0 UV-I 67 W/m 0,0 km/h (0 Bft)
13.09.2013 08:58 14,2 C 13,3 C 97 % 1019,7 hPa 0,0 l/m 0 min 0 min 0,0 UV-I 58 W/m 2,6 km/h (1 Bft)
13.09.2013 09:00 14,2 C 13,3 C 97 % 1019,7 hPa 0,0 l/m 0 min 0 min 0,0 UV-I 49 W/m 7,7 km/h (2 Bft)
13.09.2013 09:02 14,1 C 13,3 C 97 % 1019,8 hPa 0,0 l/m 0 min 0 min 0,0 UV-I 53 W/m 0,0 km/h (0 Bft)
13.09.2013 09:06 14,1 C 13,3 C 97 % 1019,7 hPa 0,0 l/m 0 min 0 min 0,0 UV-I 62 W/m 5,1 km/h (1 Bft)
13.09.2013 09:08 14,1 C 13,3 C 96 % 1019,8 hPa 0,0 l/m 0 min 0 min 0,0 UV-I 77 W/m 0,0 km/h (0 Bft)
13.09.2013 09:10 14,1 C 13,3 C 96 % 1019,9 hPa 0,0 l/m 0 min 0 min 0,0 UV-I 83 W/m 0,0 km/h (0 Bft)
13.09.2013 09:12 14,1 C 13,3 C 96 % 1019,9 hPa 0,0 l/m 0 min 0 min 0,0 UV-I 81 W/m 10,3 km/h (2 Bft)
13.09.2013 09:14 14,1 C 13,3 C 96 % 1019,9 hPa 0,0 l/m 0 min 0 min 0,0 UV-I 100 W/m 5,1 km/h (1 Bft)
13.09.2013 09:16 14,1 C 13,3 C 96 % 1019,9 hPa 0,0 l/m 0 min 0 min 0,0 UV-I 116 W/m 0,0 km/h (0 Bft)
13.09.2013 09:18 14,2 C 13,9 C 96 % 1019,9 hPa 0,0 l/m 0 min 0 min 0,0 UV-I 120 W/m 0,0 km/h (0 Bft)
13.09.2013 09:20 14,2 C 13,9 C 96 % 1019,9 hPa 0,0 l/m 0 min 0 min 0,0 UV-I 121 W/m 5,1 km/h (1 Bft)
13.09.2013 09:22 14,2 C 13,9 C 96 % 1019,9 hPa 0,0 l/m 0 min 0 min 0,0 UV-I 127 W/m 2,6 km/h (1 Bft)
13.09.2013 09:24 14,2 C 13,9 C 96 % 1019,9 hPa 0,0 l/m 0 min 0 min 0,0 UV-I 120 W/m 0,0 km/h (0 Bft)
13.09.2013 09:26 14,2 C 13,9 C 96 % 1020,0 hPa 0,0 l/m 0 min 0 min 0,0 UV-I 93 W/m 0,0 km/h (0 Bft)
13.09.2013 09:28 14,2 C 13,9 C 96 % 1019,9 hPa 0,0 l/m 0 min 0 min 0,0 UV-I 100 W/m 0,0 km/h (0 Bft)
13.09.2013 09:30 14,2 C 13,9 C 95 % 1020,0 hPa 0,0 l/m 0 min 0 min 0,0 UV-I 86 W/m 0,0 km/h (0 Bft)
13.09.2013 09:32 14,2 C 13,9 C 95 % 1019,9 hPa 0,0 l/m 0 min 0 min 0,0 UV-I 65 W/m 0,0 km/h (0 Bft)
13.09.2013 09:34 14,2 C 13,9 C 95 % 1020,0 hPa 0,0 l/m 0 min 0 min 0,0 UV-I 83 W/m 0,0 km/h (0 Bft)
13.09.2013 09:36 14,2 C 13,9 C 95 % 1020,0 hPa 0,0 l/m 0 min 0 min 0,0 UV-I 116 W/m 0,0 km/h (0 Bft)
13.09.2013 09:38 14,2 C 13,9 C 95 % 1020,0 hPa 0,0 l/m 0 min 0 min 0,0 UV-I 130 W/m 0,0 km/h (0 Bft)
13.09.2013 09:40 14,3 C 13,9 C 95 % 1020,0 hPa 0,0 l/m 0 min 0 min 0,0 UV-I 121 W/m 0,0 km/h (0 Bft)
13.09.2013 09:42 14,3 C 13,9 C 95 % 1020,0 hPa 0,0 l/m 0 min 0 min 0,0 UV-I 123 W/m 0,0 km/h (0 Bft)
13.09.2013 09:44 14,4 C 13,9 C 95 % 1020,0 hPa 0,0 l/m 0 min 0 min 0,0 UV-I 127 W/m 0,0 km/h (0 Bft)
13.09.2013 09:46 14,3 C 13,9 C 94 % 1020,1 hPa 0,0 l/m 0 min 0 min 0,0 UV-I 127 W/m 0,0 km/h (0 Bft)
13.09.2013 09:48 14,3 C 13,9 C 94 % 1020,1 hPa 0,0 l/m 0 min 0 min 0,0 UV-I 130 W/m 0,0 km/h (0 Bft)
13.09.2013 09:50 14,3 C 13,9 C 94 % 1020,0 hPa 0,0 l/m 0 min 0 min 0,0 UV-I 144 W/m 0,0 km/h (0 Bft)
13.09.2013 09:52 14,3 C 13,9 C 94 % 1020,0 hPa 0,0 l/m 2 min 0 min 0,5 UV-I 237 W/m 0,0 km/h (0 Bft)
13.09.2013 09:54 14,4 C 13,9 C 94 % 1020,0 hPa 0,0 l/m 2 min 0 min 0,0 UV-I 237 W/m 2,6 km/h (1 Bft)
13.09.2013 09:56 14,5 C 13,9 C 94 % 1019,9 hPa 0,0 l/m 2 min 0 min 0,0 UV-I 271 W/m 0,0 km/h (0 Bft)
13.09.2013 09:58 14,6 C 13,9 C 93 % 1020,0 hPa 0,0 l/m 0 min 0 min 0,0 UV-I 167 W/m 0,0 km/h (0 Bft)
13.09.2013 10:00 14,7 C 13,9 C 94 % 1020,0 hPa 0,0 l/m 0 min 0 min 0,7 UV-I 179 W/m 0,0 km/h (0 Bft)
13.09.2013 10:02 14,9 C 13,9 C 93 % 1020,1 hPa 0,0 l/m 2 min 0 min 0,7 UV-I 415 W/m 0,0 km/h (0 Bft)
13.09.2013 10:06 15,0 C 13,9 C 92 % 1020,1 hPa 0,0 l/m 0 min 0 min 0,5 UV-I 167 W/m 2,6 km/h (1 Bft)
13.09.2013 10:08 15,0 C 13,9 C 92 % 1020,0 hPa 0,0 l/m 0 min 0 min 0,0 UV-I 83 W/m 0,0 km/h (0 Bft)
13.09.2013 10:10 14,9 C 13,9 C 91 % 1020,1 hPa 0,0 l/m 0 min 0 min 0,0 UV-I 81 W/m 0,0 km/h (0 Bft)
13.09.2013 10:12 14,8 C 13,9 C 91 % 1020,1 hPa 0,0 l/m 0 min 0 min 0,5 UV-I 81 W/m 0,0 km/h (0 Bft)
13.09.2013 10:14 14,8 C 13,9 C 91 % 1020,1 hPa 0,0 l/m 0 min 0 min 0,9 UV-I 93 W/m 0,0 km/h (0 Bft)
13.09.2013 10:16 14,9 C 13,9 C 92 % 1020,2 hPa 0,0 l/m 2 min 0 min 0,9 UV-I 380 W/m 0,0 km/h (0 Bft)
13.09.2013 10:18 15,1 C 13,9 C 92 % 1020,1 hPa 0,0 l/m 2 min 0 min 0,9 UV-I 417 W/m 0,0 km/h (0 Bft)
13.09.2013 10:20 15,3 C 13,9 C 92 % 1020,1 hPa 0,0 l/m 2 min 0 min 1,0 UV-I 396 W/m 0,0 km/h (0 Bft)
13.09.2013 10:22 15,5 C 13,9 C 91 % 1020,1 hPa 0,0 l/m 2 min 0 min 1,0 UV-I 406 W/m 0,0 km/h (0 Bft)
13.09.2013 10:24 15,7 C 14,4 C 90 % 1020,2 hPa 0,0 l/m 2 min 0 min 1,1 UV-I 469 W/m 0,0 km/h (0 Bft)
13.09.2013 10:26 15,9 C 14,4 C 90 % 1020,1 hPa 0,0 l/m 2 min 0 min 0,7 UV-I 385 W/m 0,0 km/h (0 Bft)
13.09.2013 10:28 15,9 C 14,4 C 88 % 1020,1 hPa 0,0 l/m 0 min 0 min 0,8 UV-I 206 W/m 0,0 km/h (0 Bft)
13.09.2013 10:30 15,9 C 15,0 C 88 % 1020,2 hPa 0,0 l/m 2 min 0 min 1,1 UV-I 420 W/m 0,0 km/h (0 Bft)
13.09.2013 10:32 16,1 C 15,0 C 88 % 1020,2 hPa 0,0 l/m 0 min 0 min 0,7 UV-I 179 W/m 0,0 km/h (0 Bft)
13.09.2013 10:34 16,1 C 15,0 C 87 % 1020,2 hPa 0,0 l/m 0 min 0 min 0,7 UV-I 139 W/m 0,0 km/h (0 Bft)
13.09.2013 10:36 15,9 C 15,0 C 88 % 1020,2 hPa 0,0 l/m 0 min 0 min 0,7 UV-I 169 W/m 0,0 km/h (0 Bft)
13.09.2013 10:38 15,9 C 15,0 C 87 % 1020,1 hPa 0,0 l/m 0 min 0 min 1,1 UV-I 169 W/m 0,0 km/h (0 Bft)
13.09.2013 10:40 15,9 C 15,0 C 88 % 1020,1 hPa 0,0 l/m 2 min 0 min 1,3 UV-I 431 W/m 0,0 km/h (0 Bft)
13.09.2013 10:42 16,1 C 15,0 C 88 % 1020,1 hPa 0,0 l/m 2 min 0 min 1,3 UV-I 464 W/m 0,0 km/h (0 Bft)
13.09.2013 10:44 16,3 C 15,6 C 89 % 1020,1 hPa 0,0 l/m 2 min 0 min 1,4 UV-I 448 W/m 0,0 km/h (0 Bft)
13.09.2013 10:46 16,6 C 15,6 C 87 % 1020,1 hPa 0,0 l/m 2 min 0 min 1,4 UV-I 476 W/m 0,0 km/h (0 Bft)
13.09.2013 10:48 16,7 C 15,6 C 86 % 1020,1 hPa 0,0 l/m 2 min 0 min 1,5 UV-I 485 W/m 0,0 km/h (0 Bft)
13.09.2013 10:50 16,8 C 16,1 C 85 % 1020,1 hPa 0,0 l/m 2 min 0 min 1,5 UV-I 471 W/m 2,6 km/h (1 Bft)
13.09.2013 10:52 16,9 C 16,1 C 85 % 1020,2 hPa 0,0 l/m 2 min 0 min 1,5 UV-I 494 W/m 2,6 km/h (1 Bft)
13.09.2013 10:54 16,9 C 16,1 C 85 % 1020,2 hPa 0,0 l/m 2 min 0 min 1,2 UV-I 545 W/m 0,0 km/h (0 Bft)
13.09.2013 10:56 17,0 C 16,1 C 85 % 1020,2 hPa 0,0 l/m 2 min 0 min 1,6 UV-I 575 W/m 0,0 km/h (0 Bft)
13.09.2013 10:58 17,1 C 16,7 C 84 % 1020,3 hPa 0,0 l/m 2 min 0 min 1,5 UV-I 489 W/m 0,0 km/h (0 Bft)
13.09.2013 11:00 17,0 C 16,1 C 83 % 1020,2 hPa 0,0 l/m 0 min 0 min 1,2 UV-I 250 W/m 2,6 km/h (1 Bft)
13.09.2013 11:02 16,9 C 16,1 C 84 % 1020,3 hPa 0,0 l/m 2 min 0 min 1,2 UV-I 323 W/m 2,6 km/h (1 Bft)
13.09.2013 11:06 16,8 C 16,1 C 84 % 1020,2 hPa 0,0 l/m 0 min 0 min 1,1 UV-I 278 W/m 0,0 km/h (0 Bft)
13.09.2013 11:08 16,8 C 16,1 C 84 % 1020,2 hPa 0,0 l/m 0 min 0 min 0,8 UV-I 278 W/m 0,0 km/h (0 Bft)
13.09.2013 11:10 16,7 C 16,1 C 84 % 1020,2 hPa 0,0 l/m 0 min 0 min 0,8 UV-I 162 W/m 7,7 km/h (2 Bft)
13.09.2013 11:12 16,6 C 16,1 C 85 % 1020,3 hPa 0,0 l/m 0 min 0 min 1,0 UV-I 220 W/m 2,6 km/h (1 Bft)
13.09.2013 11:14 16,6 C 16,1 C 85 % 1020,3 hPa 0,0 l/m 0 min 0 min 1,2 UV-I 272 W/m 0,0 km/h (0 Bft)
13.09.2013 11:16 16,7 C 16,7 C 86 % 1020,3 hPa 0,0 l/m 0 min 0 min 1,8 UV-I 283 W/m 5,1 km/h (1 Bft)
13.09.2013 11:18 16,8 C 16,7 C 85 % 1020,3 hPa 0,0 l/m 0 min 0 min 1,2 UV-I 221 W/m 0,0 km/h (0 Bft)
13.09.2013 11:20 16,8 C 16,1 C 84 % 1020,1 hPa 0,0 l/m 0 min 0 min 1,1 UV-I 165 W/m 5,1 km/h (1 Bft)
13.09.2013 11:22 16,7 C 16,1 C 83 % 1020,2 hPa 0,0 l/m 0 min 0 min 1,1 UV-I 174 W/m 0,0 km/h (0 Bft)
13.09.2013 11:24 16,6 C 15,6 C 83 % 1020,2 hPa 0,0 l/m 0 min 0 min 1,1 UV-I 135 W/m 2,6 km/h (1 Bft)
13.09.2013 11:26 16,6 C 15,6 C 84 % 1020,1 hPa 0,0 l/m 0 min 0 min 1,1 UV-I 118 W/m 0,0 km/h (0 Bft)
13.09.2013 11:28 16,5 C 15,6 C 84 % 1020,1 hPa 0,0 l/m 0 min 0 min 1,1 UV-I 116 W/m 0,0 km/h (0 Bft)
13.09.2013 11:30 16,4 C 15,6 C 84 % 1020,1 hPa 0,0 l/m 0 min 0 min 1,1 UV-I 130 W/m 0,0 km/h (0 Bft)
13.09.2013 11:32 16,3 C 15,0 C 84 % 1020,1 hPa 0,0 l/m 0 min 0 min 1,8 UV-I 174 W/m 0,0 km/h (0 Bft)
13.09.2013 11:34 16,5 C 15,6 C 86 % 1020,0 hPa 0,0 l/m 0 min 0 min 1,3 UV-I 202 W/m 0,0 km/h (0 Bft)
13.09.2013 11:36 16,7 C 16,1 C 86 % 1020,0 hPa 0,0 l/m 0 min 0 min 1,9 UV-I 202 W/m 0,0 km/h (0 Bft)
13.09.2013 11:38 16,9 C 16,1 C 84 % 1020,1 hPa 0,0 l/m 0 min 0 min 1,1 UV-I 251 W/m 0,0 km/h (0 Bft)
13.09.2013 11:40 16,9 C 16,7 C 83 % 1020,0 hPa 0,0 l/m 0 min 0 min 1,6 UV-I 269 W/m 0,0 km/h (0 Bft)
13.09.2013 11:42 17,2 C 16,7 C 83 % 1020,1 hPa 0,0 l/m 0 min 0 min 1,7 UV-I 269 W/m 0,0 km/h (0 Bft)
13.09.2013 11:44 17,4 C 16,7 C 84 % 1020,1 hPa 0,0 l/m 0 min 0 min 1,2 UV-I 272 W/m 0,0 km/h (0 Bft)
13.09.2013 11:46 17,5 C 17,2 C 82 % 1020,1 hPa 0,0 l/m 2 min 0 min 2,3 UV-I 668 W/m 0,0 km/h (0 Bft)
13.09.2013 11:48 17,7 C 17,2 C 82 % 1020,1 hPa 0,0 l/m 0 min 0 min 1,3 UV-I 272 W/m 0,0 km/h (0 Bft)
13.09.2013 11:50 17,7 C 17,2 C 80 % 1020,1 hPa 0,0 l/m 0 min 0 min 1,3 UV-I 243 W/m 0,0 km/h (0 Bft)
13.09.2013 11:52 17,7 C 17,2 C 80 % 1020,0 hPa 0,0 l/m 2 min 0 min 2,3 UV-I 691 W/m 0,0 km/h (0 Bft)
13.09.2013 11:54 17,9 C 17,8 C 81 % 1020,0 hPa 0,0 l/m 2 min 0 min 2,4 UV-I 712 W/m 12,9 km/h (3 Bft)
13.09.2013 11:56 18,3 C 17,8 C 81 % 1020,0 hPa 0,0 l/m 2 min 0 min 2,1 UV-I 661 W/m 2,6 km/h (1 Bft)
13.09.2013 11:58 18,7 C 18,3 C 81 % 1020,0 hPa 0,0 l/m 2 min 0 min 2,5 UV-I 698 W/m 10,3 km/h (2 Bft)
13.09.2013 12:00 18,9 C 18,3 C 79 % 1020,0 hPa 0,0 l/m 2 min 0 min 2,0 UV-I 619 W/m 7,7 km/h (2 Bft)
13.09.2013 12:02 18,9 C 18,3 C 77 % 1020,0 hPa 0,0 l/m 2 min 0 min 2,5 UV-I 628 W/m 2,6 km/h (1 Bft)
13.09.2013 12:06 18,8 C 17,8 C 76 % 1020,0 hPa 0,0 l/m 0 min 0 min 2,4 UV-I 211 W/m 2,6 km/h (1 Bft)
13.09.2013 12:08 18,7 C 17,8 C 78 % 1020,0 hPa 0,0 l/m 2 min 0 min 2,6 UV-I 626 W/m 2,6 km/h (1 Bft)
13.09.2013 12:10 18,7 C 17,8 C 77 % 1020,0 hPa 0,0 l/m 2 min 0 min 2,6 UV-I 628 W/m 0,0 km/h (0 Bft)
13.09.2013 12:12 18,6 C 17,8 C 76 % 1020,0 hPa 0,0 l/m 0 min 0 min 1,4 UV-I 111 W/m 2,6 km/h (1 Bft)
13.09.2013 12:14 18,3 C 17,2 C 77 % 1020,0 hPa 0,0 l/m 0 min 0 min 1,3 UV-I 114 W/m 2,6 km/h (1 Bft)
13.09.2013 12:16 18,1 C 16,7 C 77 % 1020,0 hPa 0,0 l/m 0 min 0 min 1,3 UV-I 132 W/m 2,6 km/h (1 Bft)
13.09.2013 12:18 17,8 C 16,7 C 77 % 1019,9 hPa 0,0 l/m 0 min 0 min 1,4 UV-I 144 W/m 2,6 km/h (1 Bft)
13.09.2013 12:20 17,8 C 16,7 C 79 % 1019,9 hPa 0,0 l/m 2 min 0 min 2,6 UV-I 531 W/m 0,0 km/h (0 Bft)
13.09.2013 12:22 17,7 C 16,7 C 77 % 1019,9 hPa 0,0 l/m 0 min 0 min 1,4 UV-I 113 W/m 2,6 km/h (1 Bft)
13.09.2013 12:24 17,6 C 16,1 C 77 % 1019,9 hPa 0,0 l/m 0 min 0 min 1,4 UV-I 123 W/m 0,0 km/h (0 Bft)
13.09.2013 12:26 17,5 C 16,7 C 78 % 1019,9 hPa 0,0 l/m 0 min 0 min 2,9 UV-I 123 W/m 2,6 km/h (1 Bft)
13.09.2013 12:28 17,6 C 16,7 C 78 % 1019,9 hPa 0,0 l/m 2 min 0 min 2,9 UV-I 664 W/m 2,6 km/h (1 Bft)
13.09.2013 12:30 17,8 C 17,2 C 78 % 1019,9 hPa 0,0 l/m 2 min 0 min 2,8 UV-I 643 W/m 0,0 km/h (0 Bft)
13.09.2013 12:32 18,2 C 17,2 C 79 % 1019,9 hPa 0,0 l/m 2 min 0 min 2,2 UV-I 552 W/m 5,1 km/h (1 Bft)
13.09.2013 12:34 18,4 C 17,8 C 76 % 1019,9 hPa 0,0 l/m 2 min 0 min 3,0 UV-I 686 W/m 0,0 km/h (0 Bft)
13.09.2013 12:36 18,7 C 18,3 C 75 % 1019,8 hPa 0,0 l/m 2 min 0 min 2,9 UV-I 682 W/m 10,3 km/h (2 Bft)
13.09.2013 12:38 19,1 C 18,3 C 75 % 1019,9 hPa 0,0 l/m 2 min 0 min 2,3 UV-I 751 W/m 10,3 km/h (2 Bft)
13.09.2013 12:40 19,2 C 18,3 C 73 % 1019,9 hPa 0,0 l/m 2 min 0 min 2,3 UV-I 612 W/m 0,0 km/h (0 Bft)
13.09.2013 12:42 19,3 C 18,9 C 74 % 1019,8 hPa 0,0 l/m 2 min 0 min 2,3 UV-I 670 W/m 12,9 km/h (3 Bft)
13.09.2013 12:44 19,3 C 18,9 C 74 % 1019,8 hPa 0,0 l/m 2 min 0 min 1,9 UV-I 717 W/m 0,0 km/h (0 Bft)
13.09.2013 12:46 19,2 C 18,3 C 74 % 1019,9 hPa 0,0 l/m 0 min 0 min 1,4 UV-I 193 W/m 10,3 km/h (2 Bft)
13.09.2013 12:48 18,9 C 18,3 C 74 % 1019,8 hPa 0,0 l/m 0 min 0 min 1,3 UV-I 181 W/m 0,0 km/h (0 Bft)
13.09.2013 12:50 18,8 C 17,8 C 74 % 1019,8 hPa 0,0 l/m 0 min 0 min 1,3 UV-I 174 W/m 10,3 km/h (2 Bft)
13.09.2013 12:52 18,6 C 17,8 C 75 % 1019,8 hPa 0,0 l/m 0 min 0 min 1,6 UV-I 181 W/m 7,7 km/h (2 Bft)
13.09.2013 12:54 18,6 C 17,8 C 77 % 1019,8 hPa 0,0 l/m 0 min 0 min 1,5 UV-I 181 W/m 0,0 km/h (0 Bft)
13.09.2013 12:56 18,6 C 17,8 C 76 % 1019,8 hPa 0,0 l/m 0 min 0 min 1,2 UV-I 197 W/m 0,0 km/h (0 Bft)
13.09.2013 12:58 18,6 C 17,8 C 76 % 1019,8 hPa 0,0 l/m 0 min 0 min 1,2 UV-I 211 W/m 0,0 km/h (0 Bft)
13.09.2013 13:00 18,5 C 17,8 C 76 % 1019,8 hPa 0,0 l/m 0 min 0 min 1,3 UV-I 244 W/m 0,0 km/h (0 Bft)
13.09.2013 13:02 18,4 C 17,8 C 76 % 1019,8 hPa 0,0 l/m 0 min 0 min 1,3 UV-I 341 W/m 0,0 km/h (0 Bft)
13.09.2013 13:06 18,5 C 17,8 C 77 % 1019,8 hPa 0,0 l/m 0 min 0 min 1,2 UV-I 218 W/m 0,0 km/h (0 Bft)
13.09.2013 13:08 18,5 C 17,8 C 77 % 1019,8 hPa 0,0 l/m 0 min 0 min 1,2 UV-I 225 W/m 0,0 km/h (0 Bft)
13.09.2013 13:10 18,4 C 17,8 C 77 % 1019,8 hPa 0,0 l/m 0 min 0 min 1,3 UV-I 241 W/m 0,0 km/h (0 Bft)
13.09.2013 13:12 18,4 C 17,8 C 76 % 1019,8 hPa 0,0 l/m 0 min 0 min 1,4 UV-I 262 W/m 0,0 km/h (0 Bft)
13.09.2013 13:14 18,4 C 18,3 C 76 % 1019,7 hPa 0,0 l/m 0 min 0 min 1,6 UV-I 352 W/m 0,0 km/h (0 Bft)
13.09.2013 13:16 18,5 C 18,3 C 76 % 1019,7 hPa 0,0 l/m 0 min 0 min 1,8 UV-I 311 W/m 0,0 km/h (0 Bft)
13.09.2013 13:18 18,6 C 18,3 C 77 % 1019,7 hPa 0,0 l/m 2 min 0 min 1,7 UV-I 524 W/m 0,0 km/h (0 Bft)
13.09.2013 13:20 18,7 C 18,3 C 77 % 1019,7 hPa 0,0 l/m 0 min 0 min 1,6 UV-I 345 W/m 0,0 km/h (0 Bft)
13.09.2013 13:22 18,8 C 18,3 C 76 % 1019,7 hPa 0,0 l/m 2 min 0 min 1,5 UV-I 429 W/m 0,0 km/h (0 Bft)
13.09.2013 13:24 18,9 C 18,9 C 76 % 1019,7 hPa 0,0 l/m 2 min 0 min 1,6 UV-I 429 W/m 0,0 km/h (0 Bft)
13.09.2013 13:26 19,2 C 18,9 C 75 % 1019,7 hPa 0,0 l/m 2 min 0 min 1,6 UV-I 429 W/m 0,0 km/h (0 Bft)
13.09.2013 13:28 19,5 C 18,9 C 75 % 1019,7 hPa 0,0 l/m 2 min 0 min 1,9 UV-I 429 W/m 0,0 km/h (0 Bft)
13.09.2013 13:30 19,7 C 18,9 C 73 % 1019,6 hPa 0,0 l/m 2 min 0 min 1,9 UV-I 740 W/m 0,0 km/h (0 Bft)
13.09.2013 13:32 19,5 C 18,9 C 71 % 1019,6 hPa 0,0 l/m 2 min 0 min 2,0 UV-I 603 W/m 10,3 km/h (2 Bft)
13.09.2013 13:34 19,6 C 19,4 C 73 % 1019,6 hPa 0,0 l/m 2 min 0 min 2,2 UV-I 599 W/m 7,7 km/h (2 Bft)
13.09.2013 13:36 19,8 C 19,4 C 74 % 1019,6 hPa 0,0 l/m 2 min 0 min 2,3 UV-I 585 W/m 7,7 km/h (2 Bft)
13.09.2013 13:38 19,8 C 19,4 C 70 % 1019,7 hPa 0,0 l/m 2 min 0 min 2,6 UV-I 666 W/m 5,1 km/h (1 Bft)
13.09.2013 13:40 19,9 C 18,9 C 69 % 1019,7 hPa 0,0 l/m 2 min 0 min 2,8 UV-I 671 W/m 7,7 km/h (2 Bft)
13.09.2013 13:42 20,0 C 19,4 C 71 % 1019,7 hPa 0,0 l/m 2 min 0 min 3,2 UV-I 703 W/m 7,7 km/h (2 Bft)
13.09.2013 13:44 20,2 C 19,4 C 70 % 1019,7 hPa 0,0 l/m 2 min 0 min 3,3 UV-I 657 W/m 5,1 km/h (1 Bft)
13.09.2013 13:46 20,3 C 19,4 C 69 % 1019,6 hPa 0,0 l/m 2 min 0 min 2,9 UV-I 536 W/m 10,3 km/h (2 Bft)
13.09.2013 13:48 20,2 C 18,9 C 68 % 1019,6 hPa 0,0 l/m 2 min 0 min 3,1 UV-I 591 W/m 7,7 km/h (2 Bft)
13.09.2013 13:50 20,2 C 18,9 C 68 % 1019,6 hPa 0,0 l/m 2 min 0 min 3,2 UV-I 633 W/m 5,1 km/h (1 Bft)
13.09.2013 13:52 20,2 C 18,9 C 66 % 1019,7 hPa 0,0 l/m 2 min 0 min 3,3 UV-I 712 W/m 7,7 km/h (2 Bft)
13.09.2013 13:54 20,1 C 18,9 C 65 % 1019,8 hPa 0,0 l/m 2 min 0 min 3,2 UV-I 664 W/m 12,9 km/h (3 Bft)
13.09.2013 13:56 20,1 C 18,9 C 67 % 1019,7 hPa 0,0 l/m 2 min 0 min 2,0 UV-I 659 W/m 10,3 km/h (2 Bft)
13.09.2013 13:58 20,1 C 18,9 C 68 % 1019,7 hPa 0,0 l/m 2 min 0 min 2,9 UV-I 687 W/m 10,3 km/h (2 Bft)
13.09.2013 14:00 20,3 C 19,4 C 69 % 1019,7 hPa 0,0 l/m 2 min 0 min 2,7 UV-I 610 W/m 12,9 km/h (3 Bft)
13.09.2013 14:02 20,4 C 19,4 C 67 % 1019,7 hPa 0,0 l/m 2 min 0 min 2,9 UV-I 765 W/m 10,3 km/h (2 Bft)
13.09.2013 14:06 20,7 C 20,0 C 67 % 1019,7 hPa 0,0 l/m 2 min 0 min 2,9 UV-I 745 W/m 10,3 km/h (2 Bft)
13.09.2013 14:08 20,8 C 19,4 C 64 % 1019,7 hPa 0,0 l/m 0 min 0 min 1,6 UV-I 209 W/m 10,3 km/h (2 Bft)
13.09.2013 14:10 20,4 C 19,4 C 65 % 1019,7 hPa 0,0 l/m 2 min 0 min 2,5 UV-I 703 W/m 7,7 km/h (2 Bft)
13.09.2013 14:12 20,2 C 19,4 C 65 % 1019,7 hPa 0,0 l/m 2 min 0 min 2,7 UV-I 703 W/m 2,6 km/h (1 Bft)
13.09.2013 14:14 20,3 C 19,4 C 66 % 1019,6 hPa 0,0 l/m 0 min 0 min 1,8 UV-I 276 W/m 5,1 km/h (1 Bft)
13.09.2013 14:16 20,2 C 19,4 C 65 % 1019,6 hPa 0,0 l/m 0 min 0 min 1,9 UV-I 276 W/m 7,7 km/h (2 Bft)
13.09.2013 14:18 20,2 C 19,4 C 67 % 1019,6 hPa 0,0 l/m 0 min 0 min 3,0 UV-I 327 W/m 15,4 km/h (3 Bft)
13.09.2013 14:20 20,2 C 19,4 C 66 % 1019,6 hPa 0,0 l/m 2 min 0 min 1,7 UV-I 737 W/m 12,9 km/h (3 Bft)
13.09.2013 14:22 20,2 C 19,4 C 68 % 1019,6 hPa 0,0 l/m 0 min 0 min 2,1 UV-I 267 W/m 0,0 km/h (0 Bft)
13.09.2013 14:24 20,2 C 19,4 C 68 % 1019,7 hPa 0,0 l/m 2 min 0 min 2,5 UV-I 656 W/m 0,0 km/h (0 Bft)
13.09.2013 14:26 20,3 C 19,4 C 67 % 1019,6 hPa 0,0 l/m 2 min 0 min 1,5 UV-I 656 W/m 15,4 km/h (3 Bft)
13.09.2013 14:28 20,1 C 18,9 C 67 % 1019,6 hPa 0,0 l/m 0 min 0 min 1,4 UV-I 243 W/m 7,7 km/h (2 Bft)
13.09.2013 14:30 19,9 C 18,9 C 67 % 1019,6 hPa 0,0 l/m 0 min 0 min 1,5 UV-I 276 W/m 5,1 km/h (1 Bft)
13.09.2013 14:32 19,8 C 18,9 C 69 % 1019,6 hPa 0,0 l/m 0 min 0 min 1,6 UV-I 292 W/m 0,0 km/h (0 Bft)
13.09.2013 14:34 19,7 C 18,9 C 67 % 1019,7 hPa 0,0 l/m 0 min 0 min 1,5 UV-I 271 W/m 2,6 km/h (1 Bft)
13.09.2013 14:36 19,5 C 18,9 C 68 % 1019,6 hPa 0,0 l/m 0 min 0 min 1,4 UV-I 246 W/m 0,0 km/h (0 Bft)
13.09.2013 14:38 19,4 C 18,9 C 69 % 1019,6 hPa 0,0 l/m 0 min 0 min 1,3 UV-I 246 W/m 0,0 km/h (0 Bft)
13.09.2013 14:40 19,4 C 18,9 C 67 % 1019,6 hPa 0,0 l/m 0 min 0 min 1,3 UV-I 248 W/m 0,0 km/h (0 Bft)
13.09.2013 14:42 19,3 C 18,3 C 67 % 1019,6 hPa 0,0 l/m 0 min 0 min 1,3 UV-I 255 W/m 0,0 km/h (0 Bft)
13.09.2013 14:44 19,2 C 18,3 C 68 % 1019,6 hPa 0,0 l/m 0 min 0 min 1,4 UV-I 283 W/m 0,0 km/h (0 Bft)
13.09.2013 14:46 19,2 C 18,3 C 68 % 1019,5 hPa 0,0 l/m 0 min 0 min 2,3 UV-I 294 W/m 5,1 km/h (1 Bft)
13.09.2013 14:48 19,4 C 18,9 C 69 % 1019,5 hPa 0,0 l/m 2 min 0 min 2,6 UV-I 742 W/m 0,0 km/h (0 Bft)
13.09.2013 14:50 19,8 C 19,4 C 70 % 1019,5 hPa 0,0 l/m 2 min 0 min 2,8 UV-I 768 W/m 0,0 km/h (0 Bft)
13.09.2013 14:52 20,3 C 20,0 C 68 % 1019,5 hPa 0,0 l/m 2 min 0 min 2,9 UV-I 740 W/m 0,0 km/h (0 Bft)
13.09.2013 14:54 20,6 C 20,0 C 67 % 1019,5 hPa 0,0 l/m 2 min 0 min 2,8 UV-I 701 W/m 12,9 km/h (3 Bft)
13.09.2013 14:56 20,8 C 20,0 C 65 % 1019,5 hPa 0,0 l/m 2 min 0 min 2,8 UV-I 700 W/m 12,9 km/h (3 Bft)
13.09.2013 14:58 20,9 C 20,0 C 64 % 1019,5 hPa 0,0 l/m 2 min 0 min 2,9 UV-I 717 W/m 10,3 km/h (2 Bft)
13.09.2013 15:00 20,9 C 20,0 C 64 % 1019,5 hPa 0,0 l/m 2 min 0 min 2,8 UV-I 629 W/m 10,3 km/h (2 Bft)
13.09.2013 15:02 20,7 C 19,4 C 63 % 1019,5 hPa 0,0 l/m 2 min 0 min 2,2 UV-I 469 W/m 12,9 km/h (3 Bft)
13.09.2013 15:06 20,6 C 19,4 C 65 % 1019,6 hPa 0,0 l/m 0 min 0 min 1,6 UV-I 220 W/m 15,4 km/h (3 Bft)
13.09.2013 15:08 20,3 C 18,9 C 64 % 1019,6 hPa 0,0 l/m 0 min 0 min 1,3 UV-I 193 W/m 10,3 km/h (2 Bft)
13.09.2013 15:10 19,9 C 18,3 C 64 % 1019,6 hPa 0,0 l/m 0 min 0 min 1,3 UV-I 193 W/m 7,7 km/h (2 Bft)
13.09.2013 15:12 19,7 C 18,3 C 65 % 1019,5 hPa 0,0 l/m 0 min 0 min 1,3 UV-I 218 W/m 0,0 km/h (0 Bft)
13.09.2013 15:14 19,5 C 18,3 C 65 % 1019,5 hPa 0,0 l/m 2 min 0 min 1,5 UV-I 362 W/m 7,7 km/h (2 Bft)
13.09.2013 15:16 19,4 C 18,3 C 67 % 1019,5 hPa 0,0 l/m 0 min 0 min 1,3 UV-I 223 W/m 10,3 km/h (2 Bft)
13.09.2013 15:18 19,4 C 18,3 C 68 % 1019,5 hPa 0,0 l/m 0 min 0 min 1,3 UV-I 214 W/m 0,0 km/h (0 Bft)
13.09.2013 15:20 19,4 C 18,3 C 69 % 1019,5 hPa 0,0 l/m 0 min 0 min 1,3 UV-I 250 W/m 0,0 km/h (0 Bft)
13.09.2013 15:22 19,3 C 18,3 C 70 % 1019,5 hPa 0,0 l/m 0 min 0 min 1,5 UV-I 315 W/m 2,6 km/h (1 Bft)
13.09.2013 15:24 19,3 C 18,3 C 70 % 1019,4 hPa 0,0 l/m 0 min 0 min 1,5 UV-I 297 W/m 2,6 km/h (1 Bft)
13.09.2013 15:26 19,4 C 18,9 C 69 % 1019,5 hPa 0,0 l/m 0 min 0 min 1,3 UV-I 322 W/m 2,6 km/h (1 Bft)
13.09.2013 15:28 19,3 C 18,3 C 68 % 1019,4 hPa 0,0 l/m 0 min 0 min 1,3 UV-I 258 W/m 10,3 km/h (2 Bft)
13.09.2013 15:30 19,3 C 18,3 C 69 % 1019,3 hPa 0,0 l/m 0 min 0 min 1,2 UV-I 264 W/m 5,1 km/h (1 Bft)
13.09.2013 15:32 19,3 C 18,9 C 69 % 1019,3 hPa 0,0 l/m 0 min 0 min 1,2 UV-I 271 W/m 2,6 km/h (1 Bft)
13.09.2013 15:34 19,3 C 18,3 C 69 % 1019,3 hPa 0,0 l/m 0 min 0 min 1,2 UV-I 272 W/m 7,7 km/h (2 Bft)
13.09.2013 15:36 19,2 C 18,3 C 69 % 1019,3 hPa 0,0 l/m 0 min 0 min 1,2 UV-I 258 W/m 7,7 km/h (2 Bft)
13.09.2013 15:38 19,2 C 18,3 C 70 % 1019,3 hPa 0,0 l/m 0 min 0 min 1,2 UV-I 258 W/m 2,6 km/h (1 Bft)
13.09.2013 15:40 19,2 C 18,3 C 70 % 1019,3 hPa 0,0 l/m 2 min 0 min 1,2 UV-I 353 W/m 5,1 km/h (1 Bft)
13.09.2013 15:42 19,2 C 18,3 C 69 % 1019,3 hPa 0,0 l/m 0 min 0 min 1,2 UV-I 272 W/m 15,4 km/h (3 Bft)
13.09.2013 15:44 19,3 C 18,3 C 69 % 1019,3 hPa 0,0 l/m 2 min 0 min 1,2 UV-I 315 W/m 7,7 km/h (2 Bft)
13.09.2013 15:46 19,3 C 18,3 C 68 % 1019,3 hPa 0,0 l/m 0 min 0 min 1,2 UV-I 260 W/m 7,7 km/h (2 Bft)
13.09.2013 15:48 19,2 C 18,3 C 69 % 1019,2 hPa 0,0 l/m 0 min 0 min 1,1 UV-I 251 W/m 12,9 km/h (3 Bft)
13.09.2013 15:50 19,2 C 18,3 C 69 % 1019,2 hPa 0,0 l/m 0 min 0 min 1,1 UV-I 264 W/m 10,3 km/h (2 Bft)
13.09.2013 15:52 19,1 C 18,3 C 69 % 1019,2 hPa 0,0 l/m 2 min 0 min 1,2 UV-I 315 W/m 12,9 km/h (3 Bft)
13.09.2013 15:54 19,2 C 18,3 C 71 % 1019,2 hPa 0,0 l/m 2 min 0 min 1,2 UV-I 306 W/m 0,0 km/h (0 Bft)
13.09.2013 15:56 19,2 C 18,3 C 70 % 1019,2 hPa 0,0 l/m 0 min 0 min 1,1 UV-I 255 W/m 5,1 km/h (1 Bft)
13.09.2013 15:58 19,2 C 18,3 C 70 % 1019,2 hPa 0,0 l/m 0 min 0 min 1,0 UV-I 253 W/m 10,3 km/h (2 Bft)
13.09.2013 16:00 19,2 C 18,3 C 70 % 1019,3 hPa 0,0 l/m 0 min 0 min 0,9 UV-I 239 W/m 0,0 km/h (0 Bft)
13.09.2013 16:02 19,2 C 18,3 C 72 % 1019,2 hPa 0,0 l/m 0 min 0 min 0,9 UV-I 227 W/m 10,3 km/h (2 Bft)
13.09.2013 16:06 19,2 C 18,3 C 71 % 1019,2 hPa 0,0 l/m 0 min 0 min 0,8 UV-I 199 W/m 7,7 km/h (2 Bft)
13.09.2013 16:08 19,1 C 17,8 C 70 % 1019,2 hPa 0,0 l/m 0 min 0 min 0,8 UV-I 193 W/m 10,3 km/h (2 Bft)
13.09.2013 16:10 19,0 C 17,8 C 71 % 1019,1 hPa 0,0 l/m 0 min 0 min 0,8 UV-I 237 W/m 0,0 km/h (0 Bft)
13.09.2013 16:12 18,9 C 17,8 C 71 % 1019,1 hPa 0,0 l/m 0 min 0 min 0,8 UV-I 251 W/m 5,1 km/h (1 Bft)
13.09.2013 16:14 19,1 C 18,3 C 72 % 1019,1 hPa 0,0 l/m 0 min 0 min 0,8 UV-I 251 W/m 0,0 km/h (0 Bft)
13.09.2013 16:16 19,1 C 18,3 C 72 % 1019,1 hPa 0,0 l/m 0 min 0 min 0,7 UV-I 211 W/m 0,0 km/h (0 Bft)
13.09.2013 16:18 19,2 C 18,3 C 72 % 1019,1 hPa 0,0 l/m 0 min 0 min 0,7 UV-I 216 W/m 0,0 km/h (0 Bft)
13.09.2013 16:20 19,2 C 18,3 C 71 % 1019,0 hPa 0,0 l/m 0 min 0 min 0,8 UV-I 227 W/m 0,0 km/h (0 Bft)
13.09.2013 16:22 19,1 C 18,3 C 71 % 1018,9 hPa 0,0 l/m 0 min 0 min 0,8 UV-I 269 W/m 0,0 km/h (0 Bft)
13.09.2013 16:24 19,2 C 18,3 C 72 % 1018,9 hPa 0,0 l/m 0 min 0 min 0,9 UV-I 260 W/m 2,6 km/h (1 Bft)
13.09.2013 16:26 19,2 C 18,9 C 71 % 1018,9 hPa 0,0 l/m 2 min 0 min 1,1 UV-I 380 W/m 12,9 km/h (3 Bft)
13.09.2013 16:28 19,2 C 18,9 C 71 % 1018,9 hPa 0,0 l/m 0 min 0 min 1,0 UV-I 255 W/m 5,1 km/h (1 Bft)
13.09.2013 16:30 19,2 C 18,3 C 70 % 1018,9 hPa 0,0 l/m 0 min 0 min 0,7 UV-I 221 W/m 0,0 km/h (0 Bft)
13.09.2013 16:32 19,3 C 18,3 C 72 % 1018,8 hPa 0,0 l/m 0 min 0 min 0,6 UV-I 218 W/m 0,0 km/h (0 Bft)
13.09.2013 16:34 19,3 C 18,3 C 72 % 1018,8 hPa 0,0 l/m 0 min 0 min 0,5 UV-I 174 W/m 0,0 km/h (0 Bft)
13.09.2013 16:36 19,3 C 18,3 C 72 % 1018,8 hPa 0,0 l/m 0 min 0 min 0,6 UV-I 229 W/m 5,1 km/h (1 Bft)
13.09.2013 16:38 19,3 C 18,3 C 72 % 1018,7 hPa 0,0 l/m 0 min 0 min 0,5 UV-I 206 W/m 2,6 km/h (1 Bft)
13.09.2013 16:40 19,2 C 18,3 C 72 % 1018,7 hPa 0,0 l/m 0 min 0 min 0,5 UV-I 171 W/m 2,6 km/h (1 Bft)
13.09.2013 16:42 19,2 C 18,3 C 72 % 1018,7 hPa 0,0 l/m 0 min 0 min 0,5 UV-I 197 W/m 2,6 km/h (1 Bft)
13.09.2013 16:44 19,2 C 18,3 C 72 % 1018,7 hPa 0,0 l/m 0 min 0 min 0,5 UV-I 195 W/m 12,9 km/h (3 Bft)
13.09.2013 16:46 19,1 C 18,3 C 72 % 1018,7 hPa 0,0 l/m 0 min 0 min 0,5 UV-I 186 W/m 7,7 km/h (2 Bft)
13.09.2013 16:48 19,1 C 18,3 C 73 % 1018,7 hPa 0,0 l/m 0 min 0 min 0,5 UV-I 179 W/m 5,1 km/h (1 Bft)
13.09.2013 16:50 19,0 C 17,8 C 74 % 1018,7 hPa 0,0 l/m 0 min 0 min 0,5 UV-I 176 W/m 0,0 km/h (0 Bft)
13.09.2013 16:52 19,0 C 17,8 C 73 % 1018,6 hPa 0,0 l/m 0 min 0 min 0,5 UV-I 174 W/m 0,0 km/h (0 Bft)
13.09.2013 16:54 18,9 C 17,8 C 73 % 1018,7 hPa 0,0 l/m 0 min 0 min 0,5 UV-I 172 W/m 5,1 km/h (1 Bft)
13.09.2013 16:56 18,8 C 17,8 C 73 % 1018,8 hPa 0,0 l/m 0 min 0 min 0,5 UV-I 172 W/m 10,3 km/h (2 Bft)
13.09.2013 16:58 18,8 C 17,8 C 73 % 1018,7 hPa 0,0 l/m 0 min 0 min 0,0 UV-I 174 W/m 5,1 km/h (1 Bft)
13.09.2013 17:00 18,7 C 17,8 C 73 % 1018,7 hPa 0,0 l/m 0 min 0 min 0,0 UV-I 179 W/m 5,1 km/h (1 Bft)
13.09.2013 17:02 18,7 C 17,8 C 74 % 1018,7 hPa 0,0 l/m 0 min 0 min 0,0 UV-I 174 W/m 0,0 km/h (0 Bft)
13.09.2013 17:06 18,7 C 17,2 C 75 % 1018,7 hPa 0,0 l/m 0 min 0 min 0,0 UV-I 156 W/m 5,1 km/h (1 Bft)
13.09.2013 17:08 18,6 C 17,2 C 75 % 1018,7 hPa 0,0 l/m 0 min 0 min 0,0 UV-I 148 W/m 0,0 km/h (0 Bft)
13.09.2013 17:10 18,6 C 17,2 C 75 % 1018,7 hPa 0,0 l/m 0 min 0 min 0,0 UV-I 144 W/m 0,0 km/h (0 Bft)
13.09.2013 17:12 18,6 C 17,2 C 74 % 1018,7 hPa 0,0 l/m 0 min 0 min 0,0 UV-I 141 W/m 0,0 km/h (0 Bft)
13.09.2013 17:14 18,4 C 17,2 C 73 % 1018,7 hPa 0,0 l/m 0 min 0 min 0,0 UV-I 134 W/m 10,3 km/h (2 Bft)
13.09.2013 17:16 18,4 C 17,2 C 73 % 1018,7 hPa 0,0 l/m 0 min 0 min 0,0 UV-I 128 W/m 5,1 km/h (1 Bft)
13.09.2013 17:18 18,3 C 17,2 C 72 % 1018,7 hPa 0,0 l/m 0 min 0 min 0,0 UV-I 125 W/m 7,7 km/h (2 Bft)
13.09.2013 17:20 18,3 C 17,2 C 72 % 1018,6 hPa 0,0 l/m 0 min 0 min 0,0 UV-I 120 W/m 7,7 km/h (2 Bft)
13.09.2013 17:22 18,3 C 16,7 C 72 % 1018,6 hPa 0,0 l/m 0 min 0 min 0,0 UV-I 114 W/m 2,6 km/h (1 Bft)
13.09.2013 17:24 18,2 C 16,7 C 73 % 1018,6 hPa 0,0 l/m 0 min 0 min 0,0 UV-I 111 W/m 10,3 km/h (2 Bft)
13.09.2013 17:26 18,2 C 16,7 C 73 % 1018,6 hPa 0,0 l/m 0 min 0 min 0,0 UV-I 104 W/m 2,6 km/h (1 Bft)
13.09.2013 17:28 18,2 C 16,7 C 73 % 1018,7 hPa 0,0 l/m 0 min 0 min 0,0 UV-I 100 W/m 0,0 km/h (0 Bft)
13.09.2013 17:30 18,1 C 16,7 C 73 % 1018,6 hPa 0,0 l/m 0 min 0 min 0,0 UV-I 97 W/m 12,9 km/h (3 Bft)
13.09.2013 17:32 18,1 C 16,7 C 73 % 1018,7 hPa 0,0 l/m 0 min 0 min 0,0 UV-I 93 W/m 15,4 km/h (3 Bft)
13.09.2013 17:34 18,1 C 16,7 C 74 % 1018,6 hPa 0,0 l/m 0 min 0 min 0,0 UV-I 90 W/m 10,3 km/h (2 Bft)
13.09.2013 17:36 18,0 C 16,7 C 74 % 1018,6 hPa 0,0 l/m 0 min 0 min 0,0 UV-I 86 W/m 12,9 km/h (3 Bft)
13.09.2013 17:38 18,0 C 16,7 C 74 % 1018,6 hPa 0,0 l/m 0 min 0 min 0,0 UV-I 84 W/m 0,0 km/h (0 Bft)
13.09.2013 17:40 18,0 C 16,7 C 74 % 1018,6 hPa 0,0 l/m 0 min 0 min 0,0 UV-I 83 W/m 7,7 km/h (2 Bft)
13.09.2013 17:42 17,9 C 16,7 C 75 % 1018,6 hPa 0,0 l/m 0 min 0 min 0,0 UV-I 83 W/m 7,7 km/h (2 Bft)
13.09.2013 17:44 17,9 C 16,7 C 75 % 1018,6 hPa 0,0 l/m 0 min 0 min 0,0 UV-I 83 W/m 0,0 km/h (0 Bft)
13.09.2013 17:46 17,9 C 16,7 C 75 % 1018,5 hPa 0,0 l/m 0 min 0 min 0,0 UV-I 83 W/m 0,0 km/h (0 Bft)
13.09.2013 17:48 17,9 C 16,7 C 76 % 1018,6 hPa 0,0 l/m 0 min 0 min 0,0 UV-I 81 W/m 0,0 km/h (0 Bft)
13.09.2013 17:50 17,9 C 16,7 C 76 % 1018,5 hPa 0,0 l/m 0 min 0 min 0,0 UV-I 77 W/m 0,0 km/h (0 Bft)
13.09.2013 17:52 18,0 C 16,7 C 76 % 1018,6 hPa 0,0 l/m 0 min 0 min 0,0 UV-I 77 W/m 2,6 km/h (1 Bft)
13.09.2013 17:54 18,0 C 16,7 C 76 % 1018,5 hPa 0,0 l/m 0 min 0 min 0,0 UV-I 74 W/m 7,7 km/h (2 Bft)
13.09.2013 17:56 18,0 C 16,7 C 76 % 1018,5 hPa 0,0 l/m 0 min 0 min 0,0 UV-I 65 W/m 0,0 km/h (0 Bft)
13.09.2013 17:58 18,0 C 16,7 C 76 % 1018,5 hPa 0,0 l/m 0 min 0 min 0,0 UV-I 58 W/m 10,3 km/h (2 Bft)
13.09.2013 18:00 17,9 C 16,7 C 76 % 1018,5 hPa 0,0 l/m 0 min 0 min 0,0 UV-I 49 W/m 2,6 km/h (1 Bft)
13.09.2013 18:02 17,9 C 16,7 C 76 % 1018,6 hPa 0,0 l/m 0 min 0 min 0,0 UV-I 47 W/m 5,1 km/h (1 Bft)
13.09.2013 18:06 17,8 C 16,7 C 78 % 1018,5 hPa 0,0 l/m 0 min 0 min 0,0 UV-I 51 W/m 12,9 km/h (3 Bft)
13.09.2013 18:08 17,7 C 16,7 C 79 % 1018,5 hPa 0,0 l/m 0 min 0 min 0,0 UV-I 51 W/m 0,0 km/h (0 Bft)
13.09.2013 18:10 17,7 C 16,1 C 80 % 1018,5 hPa 0,0 l/m 0 min 0 min 0,0 UV-I 49 W/m 0,0 km/h (0 Bft)
13.09.2013 18:12 17,6 C 16,1 C 80 % 1018,5 hPa 0,0 l/m 0 min 0 min 0,0 UV-I 47 W/m 0,0 km/h (0 Bft)
13.09.2013 18:14 17,5 C 16,1 C 81 % 1018,5 hPa 0,0 l/m 0 min 0 min 0,0 UV-I 46 W/m 7,7 km/h (2 Bft)
13.09.2013 18:16 17,4 C 16,1 C 81 % 1018,5 hPa 0,0 l/m 0 min 0 min 0,0 UV-I 44 W/m 0,0 km/h (0 Bft)
13.09.2013 18:18 17,3 C 16,1 C 81 % 1018,5 hPa 0,0 l/m 0 min 0 min 0,0 UV-I 44 W/m 0,0 km/h (0 Bft)
13.09.2013 18:20 17,3 C 16,1 C 82 % 1018,5 hPa 0,0 l/m 0 min 2 min 0,0 UV-I 42 W/m 7,7 km/h (2 Bft)
13.09.2013 18:22 17,2 C 16,1 C 82 % 1018,6 hPa 0,0 l/m 0 min 2 min 0,0 UV-I 40 W/m 7,7 km/h (2 Bft)
13.09.2013 18:24 17,1 C 15,6 C 82 % 1018,5 hPa 0,0 l/m 0 min 2 min 0,0 UV-I 39 W/m 2,6 km/h (1 Bft)
13.09.2013 18:26 17,1 C 15,6 C 82 % 1018,5 hPa 0,0 l/m 0 min 0 min 0,0 UV-I 35 W/m 0,0 km/h (0 Bft)
13.09.2013 18:28 17,0 C 15,6 C 83 % 1018,5 hPa 0,0 l/m 0 min 0 min 0,0 UV-I 32 W/m 12,9 km/h (3 Bft)
13.09.2013 18:30 16,9 C 15,6 C 83 % 1018,5 hPa 0,0 l/m 0 min 2 min 0,0 UV-I 28 W/m 2,6 km/h (1 Bft)
13.09.2013 18:32 16,9 C 15,6 C 83 % 1018,5 hPa 0,0 l/m 0 min 2 min 0,0 UV-I 28 W/m 0,0 km/h (0 Bft)
13.09.2013 18:34 16,8 C 15,6 C 83 % 1018,5 hPa 0,0 l/m 0 min 2 min 0,0 UV-I 26 W/m 7,7 km/h (2 Bft)
13.09.2013 18:36 16,7 C 15,0 C 83 % 1018,5 hPa 0,0 l/m 0 min 2 min 0,0 UV-I 26 W/m 0,0 km/h (0 Bft)
13.09.2013 18:38 16,7 C 15,0 C 83 % 1018,5 hPa 0,0 l/m 0 min 2 min 0,0 UV-I 26 W/m 0,0 km/h (0 Bft)
13.09.2013 18:40 16,6 C 15,0 C 84 % 1018,5 hPa 0,0 l/m 0 min 0 min 0,0 UV-I 25 W/m 0,0 km/h (0 Bft)
13.09.2013 18:42 16,6 C 15,0 C 84 % 1018,4 hPa 0,0 l/m 0 min 2 min 0,0 UV-I 23 W/m 2,6 km/h (1 Bft)
13.09.2013 18:44 16,5 C 15,0 C 84 % 1018,4 hPa 0,0 l/m 0 min 2 min 0,0 UV-I 21 W/m 0,0 km/h (0 Bft)
13.09.2013 18:46 16,4 C 15,0 C 84 % 1018,5 hPa 0,0 l/m 0 min 2 min 0,0 UV-I 21 W/m 0,0 km/h (0 Bft)
13.09.2013 18:48 16,4 C 15,0 C 85 % 1018,5 hPa 0,0 l/m 0 min 0 min 0,0 UV-I 19 W/m 0,0 km/h (0 Bft)
13.09.2013 18:50 16,3 C 15,0 C 85 % 1018,5 hPa 0,0 l/m 0 min 0 min 0,0 UV-I 19 W/m 0,0 km/h (0 Bft)
13.09.2013 18:52 16,3 C 15,0 C 85 % 1018,5 hPa 0,0 l/m 0 min 0 min 0,0 UV-I 19 W/m 2,6 km/h (1 Bft)
13.09.2013 18:54 16,2 C 15,0 C 85 % 1018,4 hPa 0,0 l/m 0 min 2 min 0,0 UV-I 21 W/m 0,0 km/h (0 Bft)
13.09.2013 18:56 16,2 C 15,0 C 86 % 1018,5 hPa 0,0 l/m 0 min 2 min 0,0 UV-I 21 W/m 0,0 km/h (0 Bft)
13.09.2013 18:58 16,2 C 14,4 C 86 % 1018,4 hPa 0,0 l/m 0 min 0 min 0,0 UV-I 21 W/m 0,0 km/h (0 Bft)
13.09.2013 19:00 16,1 C 14,4 C 86 % 1018,4 hPa 0,0 l/m 0 min 0 min 0,0 UV-I 21 W/m 2,6 km/h (1 Bft)
13.09.2013 19:02 16,1 C 14,4 C 86 % 1018,4 hPa 0,0 l/m 0 min 2 min 0,0 UV-I 19 W/m 0,0 km/h (0 Bft)
13.09.2013 19:06 16,0 C 14,4 C 86 % 1018,5 hPa 0,0 l/m 0 min 0 min 0,0 UV-I 16 W/m 2,6 km/h (1 Bft)
13.09.2013 19:08 15,9 C 14,4 C 87 % 1018,5 hPa 0,0 l/m 0 min 0 min 0,0 UV-I 14 W/m 0,0 km/h (0 Bft)
13.09.2013 19:10 15,9 C 14,4 C 87 % 1018,4 hPa 0,0 l/m 0 min 0 min 0,0 UV-I 14 W/m 0,0 km/h (0 Bft)
13.09.2013 19:12 15,9 C 14,4 C 87 % 1018,5 hPa 0,0 l/m 0 min 0 min 0,0 UV-I 12 W/m 0,0 km/h (0 Bft)
13.09.2013 19:14 15,9 C 14,4 C 87 % 1018,4 hPa 0,0 l/m 0 min 0 min 0,0 UV-I 11 W/m 0,0 km/h (0 Bft)
13.09.2013 19:16 15,8 C 14,4 C 87 % 1018,4 hPa 0,0 l/m 0 min 0 min 0,0 UV-I 9 W/m 0,0 km/h (0 Bft)
13.09.2013 19:18 15,8 C 14,4 C 87 % 1018,4 hPa 0,0 l/m 0 min 0 min 0,0 UV-I 9 W/m 0,0 km/h (0 Bft)
13.09.2013 19:20 15,8 C 14,4 C 87 % 1018,4 hPa 0,0 l/m 0 min 0 min 0,0 UV-I 9 W/m 0,0 km/h (0 Bft)
13.09.2013 19:22 15,8 C 14,4 C 87 % 1018,4 hPa 0,0 l/m 0 min 0 min 0,0 UV-I 9 W/m 0,0 km/h (0 Bft)
13.09.2013 19:24 15,7 C 14,4 C 88 % 1018,4 hPa 0,0 l/m 0 min 0 min 0,0 UV-I 9 W/m 2,6 km/h (1 Bft)
13.09.2013 19:26 15,7 C 14,4 C 88 % 1018,4 hPa 0,0 l/m 0 min 0 min 0,0 UV-I 9 W/m 0,0 km/h (0 Bft)
13.09.2013 19:28 15,7 C 14,4 C 88 % 1018,4 hPa 0,0 l/m 0 min 0 min 0,0 UV-I 9 W/m 0,0 km/h (0 Bft)
13.09.2013 19:30 15,7 C 14,4 C 88 % 1018,4 hPa 0,0 l/m 0 min 0 min 0,0 UV-I 11 W/m 0,0 km/h (0 Bft)
13.09.2013 19:32 15,7 C 14,4 C 88 % 1018,4 hPa 0,0 l/m 0 min 0 min 0,0 UV-I 14 W/m 2,6 km/h (1 Bft)
13.09.2013 19:34 15,6 C 14,4 C 88 % 1018,4 hPa 0,0 l/m 0 min 0 min 0,0 UV-I 12 W/m 0,0 km/h (0 Bft)
13.09.2013 19:36 15,6 C 14,4 C 88 % 1018,4 hPa 0,0 l/m 0 min 0 min 0,0 UV-I 7 W/m 0,0 km/h (0 Bft)
13.09.2013 19:38 15,6 C 14,4 C 88 % 1018,4 hPa 0,0 l/m 0 min 0 min 0,0 UV-I 5 W/m 2,6 km/h (1 Bft)
13.09.2013 19:40 15,6 C 14,4 C 88 % 1018,3 hPa 0,0 l/m 0 min 0 min 0,0 UV-I 5 W/m 0,0 km/h (0 Bft)
13.09.2013 19:42 15,6 C 14,4 C 88 % 1018,3 hPa 0,0 l/m 0 min 0 min 0,0 UV-I 5 W/m 0,0 km/h (0 Bft)
13.09.2013 19:44 15,5 C 14,4 C 88 % 1018,3 hPa 0,0 l/m 0 min 0 min 0,0 UV-I 5 W/m 0,0 km/h (0 Bft)
13.09.2013 19:46 15,4 C 14,4 C 88 % 1018,4 hPa 0,0 l/m 0 min 0 min 0,0 UV-I 0 W/m 0,0 km/h (0 Bft)
13.09.2013 19:48 15,4 C 14,4 C 88 % 1018,4 hPa 0,0 l/m 0 min 0 min 0,0 UV-I 0 W/m 10,3 km/h (2 Bft)
13.09.2013 19:50 15,4 C 14,4 C 88 % 1018,3 hPa 0,0 l/m 0 min 0 min 0,0 UV-I 0 W/m 0,0 km/h (0 Bft)
13.09.2013 19:52 15,4 C 14,4 C 88 % 1018,3 hPa 0,0 l/m 0 min 0 min 0,0 UV-I 0 W/m 0,0 km/h (0 Bft)
13.09.2013 19:54 15,4 C 14,4 C 88 % 1018,3 hPa 0,0 l/m 0 min 0 min 0,0 UV-I 0 W/m 2,6 km/h (1 Bft)
13.09.2013 19:56 15,4 C 14,4 C 87 % 1018,3 hPa 0,0 l/m 0 min 0 min 0,0 UV-I 0 W/m 2,6 km/h (1 Bft)
13.09.2013 19:58 15,4 C 14,4 C 87 % 1018,2 hPa 0,0 l/m 0 min 0 min 0,0 UV-I 0 W/m 2,6 km/h (1 Bft)
13.09.2013 20:00 15,4 C 14,4 C 87 % 1018,3 hPa 0,0 l/m 0 min 0 min 0,0 UV-I 0 W/m 0,0 km/h (0 Bft)
13.09.2013 20:02 15,4 C 13,9 C 87 % 1018,3 hPa 0,0 l/m 0 min 0 min 0,0 UV-I 0 W/m 2,6 km/h (1 Bft)
13.09.2013 20:06 15,4 C 13,9 C 86 % 1018,3 hPa 0,0 l/m 0 min 0 min 0,0 UV-I 0 W/m 0,0 km/h (0 Bft)
13.09.2013 20:08 15,4 C 13,9 C 86 % 1018,3 hPa 0,0 l/m 0 min 0 min 0,0 UV-I 0 W/m 0,0 km/h (0 Bft)
13.09.2013 20:10 15,4 C 13,9 C 87 % 1018,3 hPa 0,0 l/m 0 min 0 min 0,0 UV-I 0 W/m 0,0 km/h (0 Bft)
13.09.2013 20:12 15,4 C 13,9 C 86 % 1018,2 hPa 0,0 l/m 0 min 0 min 0,0 UV-I 0 W/m 2,6 km/h (1 Bft)
13.09.2013 20:14 15,4 C 13,9 C 86 % 1018,2 hPa 0,0 l/m 0 min 0 min 0,0 UV-I 0 W/m 0,0 km/h (0 Bft)
13.09.2013 20:16 15,4 C 13,9 C 86 % 1018,2 hPa 0,0 l/m 0 min 0 min 0,0 UV-I 0 W/m 0,0 km/h (0 Bft)
13.09.2013 20:18 15,4 C 13,9 C 86 % 1018,3 hPa 0,0 l/m 0 min 0 min 0,0 UV-I 0 W/m 0,0 km/h (0 Bft)
13.09.2013 20:20 15,4 C 13,9 C 86 % 1018,3 hPa 0,0 l/m 0 min 0 min 0,0 UV-I 0 W/m 0,0 km/h (0 Bft)
13.09.2013 20:22 15,4 C 13,9 C 86 % 1018,3 hPa 0,0 l/m 0 min 0 min 0,0 UV-I 0 W/m 0,0 km/h (0 Bft)
13.09.2013 20:24 15,4 C 13,9 C 86 % 1018,3 hPa 0,0 l/m 0 min 0 min 0,0 UV-I 0 W/m 0,0 km/h (0 Bft)
13.09.2013 20:26 15,4 C 13,9 C 86 % 1018,3 hPa 0,0 l/m 0 min 0 min 0,0 UV-I 0 W/m 2,6 km/h (1 Bft)
13.09.2013 20:28 15,4 C 13,9 C 86 % 1018,2 hPa 0,0 l/m 0 min 0 min 0,0 UV-I 0 W/m 0,0 km/h (0 Bft)
13.09.2013 20:30 15,4 C 13,9 C 86 % 1018,2 hPa 0,0 l/m 0 min 0 min 0,0 UV-I 0 W/m 2,6 km/h (1 Bft)
13.09.2013 20:32 15,4 C 13,9 C 86 % 1018,2 hPa 0,0 l/m 0 min 0 min 0,0 UV-I 0 W/m 0,0 km/h (0 Bft)
13.09.2013 20:34 15,4 C 13,9 C 86 % 1018,2 hPa 0,0 l/m 0 min 0 min 0,0 UV-I 0 W/m 0,0 km/h (0 Bft)
13.09.2013 20:36 15,4 C 13,9 C 86 % 1018,3 hPa 0,0 l/m 0 min 0 min 0,0 UV-I 0 W/m 0,0 km/h (0 Bft)
13.09.2013 20:38 15,4 C 13,9 C 86 % 1018,3 hPa 0,0 l/m 0 min 0 min 0,0 UV-I 0 W/m 0,0 km/h (0 Bft)
13.09.2013 20:40 15,3 C 13,9 C 86 % 1018,4 hPa 0,0 l/m 0 min 0 min 0,0 UV-I 0 W/m 2,6 km/h (1 Bft)
13.09.2013 20:42 15,4 C 13,9 C 86 % 1018,3 hPa 0,0 l/m 0 min 0 min 0,0 UV-I 0 W/m 7,7 km/h (2 Bft)
13.09.2013 20:44 15,4 C 13,9 C 86 % 1018,3 hPa 0,0 l/m 0 min 0 min 0,0 UV-I 0 W/m 5,1 km/h (1 Bft)
13.09.2013 20:46 15,3 C 13,9 C 86 % 1018,3 hPa 0,0 l/m 0 min 0 min 0,0 UV-I 0 W/m 0,0 km/h (0 Bft)
13.09.2013 20:48 15,4 C 13,9 C 86 % 1018,3 hPa 0,0 l/m 0 min 0 min 0,0 UV-I 0 W/m 2,6 km/h (1 Bft)
13.09.2013 20:50 15,4 C 13,9 C 86 % 1018,3 hPa 0,0 l/m 0 min 0 min 0,0 UV-I 0 W/m 0,0 km/h (0 Bft)
13.09.2013 20:52 15,4 C 13,9 C 86 % 1018,3 hPa 0,0 l/m 0 min 2 min 0,0 UV-I 0 W/m 0,0 km/h (0 Bft)
13.09.2013 20:54 15,4 C 13,9 C 87 % 1018,4 hPa 0,0 l/m 0 min 0 min 0,0 UV-I 0 W/m 0,0 km/h (0 Bft)
13.09.2013 20:56 15,4 C 13,9 C 87 % 1018,3 hPa 0,0 l/m 0 min 0 min 0,0 UV-I 0 W/m 0,0 km/h (0 Bft)
13.09.2013 20:58 15,3 C 13,9 C 87 % 1018,3 hPa 0,0 l/m 0 min 0 min 0,0 UV-I 0 W/m 0,0 km/h (0 Bft)
13.09.2013 21:00 15,3 C 13,9 C 87 % 1018,2 hPa 0,0 l/m 0 min 0 min 0,0 UV-I 0 W/m 0,0 km/h (0 Bft)
13.09.2013 21:02 15,3 C 13,9 C 87 % 1018,2 hPa 0,0 l/m 0 min 0 min 0,0 UV-I 0 W/m 5,1 km/h (1 Bft)
13.09.2013 21:06 15,3 C 13,9 C 87 % 1018,2 hPa 0,0 l/m 0 min 0 min 0,0 UV-I 0 W/m 2,6 km/h (1 Bft)
13.09.2013 21:08 15,3 C 13,9 C 87 % 1018,2 hPa 0,0 l/m 0 min 0 min 0,0 UV-I 0 W/m 0,0 km/h (0 Bft)
13.09.2013 21:10 15,3 C 13,9 C 87 % 1018,2 hPa 0,0 l/m 0 min 2 min 0,0 UV-I 0 W/m 0,0 km/h (0 Bft)
13.09.2013 21:12 15,3 C 13,9 C 88 % 1018,2 hPa 0,0 l/m 0 min 2 min 0,0 UV-I 0 W/m 0,0 km/h (0 Bft)
13.09.2013 21:14 15,3 C 13,3 C 88 % 1018,2 hPa 0,0 l/m 0 min 0 min 0,0 UV-I 0 W/m 2,6 km/h (1 Bft)
13.09.2013 21:16 15,2 C 13,3 C 88 % 1018,1 hPa 0,0 l/m 0 min 0 min 0,0 UV-I 0 W/m 0,0 km/h (0 Bft)
13.09.2013 21:18 15,2 C 13,3 C 89 % 1018,2 hPa 0,0 l/m 0 min 0 min 0,0 UV-I 0 W/m 0,0 km/h (0 Bft)
13.09.2013 21:20 15,2 C 13,3 C 89 % 1018,2 hPa 0,0 l/m 0 min 0 min 0,0 UV-I 0 W/m 12,9 km/h (3 Bft)
13.09.2013 21:22 15,2 C 13,3 C 89 % 1018,2 hPa 0,0 l/m 0 min 0 min 0,0 UV-I 0 W/m 0,0 km/h (0 Bft)
13.09.2013 21:24 15,2 C 13,3 C 89 % 1018,2 hPa 0,0 l/m 0 min 0 min 0,0 UV-I 0 W/m 0,0 km/h (0 Bft)
13.09.2013 21:26 15,1 C 13,3 C 89 % 1018,2 hPa 0,0 l/m 0 min 0 min 0,0 UV-I 0 W/m 0,0 km/h (0 Bft)
13.09.2013 21:28 15,1 C 13,3 C 90 % 1018,2 hPa 0,0 l/m 0 min 0 min 0,0 UV-I 0 W/m 0,0 km/h (0 Bft)
13.09.2013 21:30 15,1 C 13,3 C 90 % 1018,2 hPa 0,0 l/m 0 min 0 min 0,0 UV-I 0 W/m 0,0 km/h (0 Bft)
13.09.2013 21:32 15,1 C 13,3 C 90 % 1018,1 hPa 0,0 l/m 0 min 0 min 0,0 UV-I 0 W/m 0,0 km/h (0 Bft)
13.09.2013 21:34 15,1 C 13,3 C 90 % 1018,2 hPa 0,0 l/m 0 min 0 min 0,0 UV-I 0 W/m 0,0 km/h (0 Bft)
13.09.2013 21:36 15,1 C 13,3 C 90 % 1018,1 hPa 0,0 l/m 0 min 0 min 0,0 UV-I 0 W/m 0,0 km/h (0 Bft)
13.09.2013 21:38 15,0 C 13,3 C 90 % 1018,1 hPa 0,0 l/m 0 min 0 min 0,0 UV-I 0 W/m 0,0 km/h (0 Bft)
13.09.2013 21:40 15,1 C 13,9 C 90 % 1018,2 hPa 0,0 l/m 0 min 0 min 0,0 UV-I 0 W/m 0,0 km/h (0 Bft)
13.09.2013 21:42 15,1 C 13,9 C 90 % 1018,0 hPa 0,0 l/m 0 min 0 min 0,0 UV-I 0 W/m 0,0 km/h (0 Bft)
13.09.2013 21:44 15,0 C 13,9 C 90 % 1018,1 hPa 0,0 l/m 0 min 0 min 0,0 UV-I 0 W/m 0,0 km/h (0 Bft)
13.09.2013 21:46 15,0 C 13,9 C 91 % 1018,0 hPa 0,0 l/m 0 min 0 min 0,0 UV-I 0 W/m 0,0 km/h (0 Bft)
13.09.2013 21:48 15,0 C 13,9 C 91 % 1018,0 hPa 0,0 l/m 0 min 0 min 0,0 UV-I 0 W/m 0,0 km/h (0 Bft)
13.09.2013 21:50 15,0 C 13,9 C 91 % 1018,0 hPa 0,0 l/m 0 min 0 min 0,0 UV-I 0 W/m 2,6 km/h (1 Bft)
13.09.2013 21:52 15,1 C 13,9 C 91 % 1018,0 hPa 0,0 l/m 0 min 0 min 0,0 UV-I 0 W/m 0,0 km/h (0 Bft)
13.09.2013 21:54 15,1 C 13,9 C 91 % 1018,0 hPa 0,0 l/m 0 min 0 min 0,0 UV-I 0 W/m 0,0 km/h (0 Bft)
13.09.2013 21:56 15,1 C 13,9 C 91 % 1018,0 hPa 0,0 l/m 0 min 0 min 0,0 UV-I 0 W/m 7,7 km/h (2 Bft)
13.09.2013 21:58 15,1 C 13,9 C 91 % 1018,0 hPa 0,0 l/m 0 min 0 min 0,0 UV-I 0 W/m 2,6 km/h (1 Bft)
13.09.2013 22:00 15,1 C 13,9 C 91 % 1018,1 hPa 0,0 l/m 0 min 0 min 0,0 UV-I 0 W/m 2,6 km/h (1 Bft)
13.09.2013 22:02 15,1 C 13,9 C 91 % 1018,0 hPa 0,0 l/m 0 min 0 min 0,0 UV-I 0 W/m 0,0 km/h (0 Bft)
13.09.2013 22:06 15,1 C 13,9 C 91 % 1018,1 hPa 0,0 l/m 0 min 0 min 0,0 UV-I 0 W/m 0,0 km/h (0 Bft)
13.09.2013 22:08 15,1 C 13,9 C 91 % 1018,0 hPa 0,0 l/m 0 min 0 min 0,0 UV-I 0 W/m 0,0 km/h (0 Bft)
13.09.2013 22:10 15,1 C 13,9 C 91 % 1018,0 hPa 0,0 l/m 0 min 0 min 0,0 UV-I 0 W/m 0,0 km/h (0 Bft)
13.09.2013 22:12 15,1 C 13,9 C 91 % 1018,0 hPa 0,0 l/m 0 min 0 min 0,0 UV-I 0 W/m 2,6 km/h (1 Bft)
13.09.2013 22:14 15,1 C 13,9 C 91 % 1017,9 hPa 0,0 l/m 0 min 0 min 0,0 UV-I 0 W/m 0,0 km/h (0 Bft)
13.09.2013 22:16 15,1 C 13,9 C 91 % 1017,9 hPa 0,0 l/m 0 min 0 min 0,0 UV-I 0 W/m 2,6 km/h (1 Bft)
13.09.2013 22:18 15,2 C 13,9 C 90 % 1017,9 hPa 0,0 l/m 0 min 0 min 0,0 UV-I 0 W/m 7,7 km/h (2 Bft)
13.09.2013 22:20 15,2 C 13,9 C 90 % 1017,9 hPa 0,0 l/m 0 min 0 min 0,0 UV-I 0 W/m 0,0 km/h (0 Bft)
13.09.2013 22:22 15,2 C 13,9 C 90 % 1017,8 hPa 0,0 l/m 0 min 0 min 0,0 UV-I 0 W/m 0,0 km/h (0 Bft)
13.09.2013 22:24 15,2 C 13,9 C 90 % 1017,8 hPa 0,0 l/m 0 min 0 min 0,0 UV-I 0 W/m 7,7 km/h (2 Bft)
13.09.2013 22:26 15,3 C 13,9 C 90 % 1017,8 hPa 0,0 l/m 0 min 0 min 0,0 UV-I 0 W/m 10,3 km/h (2 Bft)
13.09.2013 22:28 15,3 C 13,9 C 90 % 1017,7 hPa 0,0 l/m 0 min 0 min 0,0 UV-I 0 W/m 2,6 km/h (1 Bft)
13.09.2013 22:30 15,3 C 13,9 C 89 % 1017,6 hPa 0,0 l/m 0 min 0 min 0,0 UV-I 0 W/m 7,7 km/h (2 Bft)
13.09.2013 22:32 15,3 C 13,9 C 89 % 1017,7 hPa 0,0 l/m 0 min 0 min 0,0 UV-I 0 W/m 0,0 km/h (0 Bft)
13.09.2013 22:34 15,3 C 13,9 C 89 % 1017,6 hPa 0,0 l/m 0 min 0 min 0,0 UV-I 0 W/m 0,0 km/h (0 Bft)
13.09.2013 22:36 15,3 C 13,9 C 89 % 1017,6 hPa 0,0 l/m 0 min 0 min 0,0 UV-I 0 W/m 2,6 km/h (1 Bft)
13.09.2013 22:38 15,3 C 13,9 C 89 % 1017,7 hPa 0,0 l/m 0 min 0 min 0,0 UV-I 0 W/m 2,6 km/h (1 Bft)
13.09.2013 22:40 15,3 C 13,9 C 89 % 1017,5 hPa 0,0 l/m 0 min 0 min 0,0 UV-I 0 W/m 5,1 km/h (1 Bft)
13.09.2013 22:42 15,4 C 13,9 C 89 % 1017,6 hPa 0,0 l/m 0 min 0 min 0,0 UV-I 0 W/m 5,1 km/h (1 Bft)
13.09.2013 22:44 15,4 C 13,9 C 89 % 1017,6 hPa 0,0 l/m 0 min 2 min 0,0 UV-I 0 W/m 7,7 km/h (2 Bft)
13.09.2013 22:46 15,4 C 13,9 C 89 % 1017,5 hPa 0,0 l/m 0 min 2 min 0,0 UV-I 0 W/m 2,6 km/h (1 Bft)
13.09.2013 22:48 15,4 C 13,9 C 89 % 1017,5 hPa 0,0 l/m 0 min 2 min 0,0 UV-I 0 W/m 2,6 km/h (1 Bft)
13.09.2013 22:50 15,4 C 13,9 C 89 % 1017,5 hPa 0,0 l/m 0 min 0 min 0,0 UV-I 0 W/m 2,6 km/h (1 Bft)
13.09.2013 22:52 15,4 C 13,9 C 90 % 1017,4 hPa 0,0 l/m 0 min 0 min 0,0 UV-I 0 W/m 7,7 km/h (2 Bft)
13.09.2013 22:54 15,3 C 13,9 C 90 % 1017,4 hPa 0,0 l/m 0 min 0 min 0,0 UV-I 0 W/m 5,1 km/h (1 Bft)
13.09.2013 22:56 15,4 C 13,9 C 90 % 1017,4 hPa 0,0 l/m 0 min 0 min 0,0 UV-I 0 W/m 7,7 km/h (2 Bft)
13.09.2013 22:58 15,3 C 13,9 C 90 % 1017,3 hPa 0,0 l/m 0 min 0 min 0,0 UV-I 0 W/m 0,0 km/h (0 Bft)
13.09.2013 23:00 15,3 C 13,9 C 90 % 1017,3 hPa 0,0 l/m 0 min 0 min 0,0 UV-I 0 W/m 0,0 km/h (0 Bft)
13.09.2013 23:02 15,3 C 13,9 C 90 % 1017,2 hPa 0,0 l/m 0 min 0 min 0,0 UV-I 0 W/m 2,6 km/h (1 Bft)
13.09.2013 23:06 15,3 C 13,9 C 90 % 1017,2 hPa 0,0 l/m 0 min 2 min 0,0 UV-I 0 W/m 2,6 km/h (1 Bft)
13.09.2013 23:08 15,3 C 13,9 C 90 % 1017,2 hPa 0,0 l/m 0 min 2 min 0,0 UV-I 0 W/m 0,0 km/h (0 Bft)
13.09.2013 23:10 15,3 C 13,3 C 90 % 1017,2 hPa 0,0 l/m 0 min 2 min 0,0 UV-I 0 W/m 0,0 km/h (0 Bft)
13.09.2013 23:12 15,3 C 13,3 C 90 % 1017,3 hPa 0,0 l/m 0 min 2 min 0,0 UV-I 0 W/m 0,0 km/h (0 Bft)
13.09.2013 23:14 15,3 C 13,3 C 90 % 1017,2 hPa 0,0 l/m 0 min 2 min 0,0 UV-I 0 W/m 0,0 km/h (0 Bft)
13.09.2013 23:16 15,3 C 13,3 C 90 % 1017,2 hPa 0,0 l/m 0 min 0 min 0,0 UV-I 0 W/m 0,0 km/h (0 Bft)
13.09.2013 23:18 15,2 C 13,3 C 91 % 1017,2 hPa 0,0 l/m 0 min 0 min 0,0 UV-I 0 W/m 0,0 km/h (0 Bft)
13.09.2013 23:20 15,2 C 13,3 C 91 % 1017,2 hPa 0,0 l/m 0 min 0 min 0,0 UV-I 0 W/m 0,0 km/h (0 Bft)
13.09.2013 23:22 15,2 C 13,3 C 91 % 1017,2 hPa 0,0 l/m 0 min 2 min 0,0 UV-I 0 W/m 0,0 km/h (0 Bft)
13.09.2013 23:24 15,2 C 13,3 C 91 % 1017,1 hPa 0,0 l/m 0 min 0 min 0,0 UV-I 0 W/m 0,0 km/h (0 Bft)
13.09.2013 23:26 15,2 C 13,3 C 91 % 1017,1 hPa 0,0 l/m 0 min 0 min 0,0 UV-I 0 W/m 0,0 km/h (0 Bft)
13.09.2013 23:28 15,2 C 13,3 C 91 % 1017,1 hPa 0,0 l/m 0 min 0 min 0,0 UV-I 0 W/m 0,0 km/h (0 Bft)
13.09.2013 23:30 15,2 C 13,3 C 91 % 1017,1 hPa 0,0 l/m 0 min 0 min 0,0 UV-I 0 W/m 0,0 km/h (0 Bft)
13.09.2013 23:32 15,1 C 13,3 C 91 % 1017,1 hPa 0,0 l/m 0 min 0 min 0,0 UV-I 0 W/m 0,0 km/h (0 Bft)
13.09.2013 23:34 15,1 C 13,3 C 91 % 1017,1 hPa 0,2 l/m 0 min 0 min 0,0 UV-I 0 W/m 0,0 km/h (0 Bft)
13.09.2013 23:36 15,1 C 13,3 C 92 % 1017,1 hPa 0,0 l/m 0 min 2 min 0,0 UV-I 0 W/m 0,0 km/h (0 Bft)
13.09.2013 23:38 15,0 C 13,3 C 92 % 1017,1 hPa 0,0 l/m 0 min 0 min 0,0 UV-I 0 W/m 0,0 km/h (0 Bft)
13.09.2013 23:40 15,0 C 13,3 C 92 % 1017,1 hPa 0,0 l/m 0 min 0 min 0,0 UV-I 0 W/m 0,0 km/h (0 Bft)
13.09.2013 23:42 14,9 C 13,3 C 92 % 1017,0 hPa 0,0 l/m 0 min 0 min 0,0 UV-I 0 W/m 0,0 km/h (0 Bft)
13.09.2013 23:44 14,9 C 13,3 C 92 % 1017,0 hPa 0,0 l/m 0 min 0 min 0,0 UV-I 0 W/m 0,0 km/h (0 Bft)
13.09.2013 23:46 14,8 C 13,3 C 92 % 1017,0 hPa 0,0 l/m 0 min 0 min 0,0 UV-I 0 W/m 0,0 km/h (0 Bft)
13.09.2013 23:48 14,8 C 13,3 C 93 % 1016,9 hPa 0,0 l/m 0 min 0 min 0,0 UV-I 0 W/m 0,0 km/h (0 Bft)
13.09.2013 23:50 14,8 C 13,3 C 93 % 1017,0 hPa 0,0 l/m 0 min 0 min 0,0 UV-I 0 W/m 0,0 km/h (0 Bft)
13.09.2013 23:52 14,8 C 13,3 C 93 % 1016,9 hPa 0,0 l/m 0 min 0 min 0,0 UV-I 0 W/m 0,0 km/h (0 Bft)
13.09.2013 23:54 14,7 C 13,3 C 93 % 1016,9 hPa 0,0 l/m 0 min 0 min 0,0 UV-I 0 W/m 2,6 km/h (1 Bft)
13.09.2013 23:56 14,7 C 13,3 C 93 % 1016,8 hPa 0,0 l/m 0 min 0 min 0,0 UV-I 0 W/m 0,0 km/h (0 Bft)
13.09.2013 23:58 14,7 C 13,3 C 94 % 1016,8 hPa 0,0 l/m 0 min 0 min 0,0 UV-I 0 W/m 0,0 km/h (0 Bft)
_ Min-Zeit 05:38 05:30 15:02 23:56 - - - - - 00:00
Minimum _ 12,9 C 11,7 C 63 % 1016,8 hPa - - - - - 0,0 km/h (0 Bft)
_ Max-Zeit 14:08 14:06 08:06 10:58 23:34 07:40 18:20 13:44 14:50 14:18
Maximum _ 20,9 C 20,0 C 99 % 1020,3 hPa 0,2 l/m 2 min 2 min 3,3 UV-I 768 W/m 15,4 km/h
SW (3 Bft)
Durchschnitt _ 15,6 C 14,6 C 88 % 1018,9 hPa #0,2 l/m #3:12 h #54 min. 1,5 UV-I 229 W/m 2,0 km/h (1 Bft)
© 2013 W. Hausmann